M I D A S
Marine Information and Data Acquisition System
Tripno 900 of the Zeeleeuw from 2005-05-13 11:42:02 to 2005-05-13 13:38:10
Back to CruiseResearch ActivitiesStationsMapUnderway DataData graphs

EquipmentUnitsComment
TimeDGPSUTC
LatitudeDGPSDM.mWGS84
LongitudeDGPSDM.mWGS84
TemperatureSBE03/SBE38deg celciusITS90
ConductivitySBE21S/mITS90
SalinitySBE21 Practical Salinity Units
ChlorophylAChelsea fluorimeterg/lCalibrated in Aceton
Missing or incorrect values are displayed as -999
Sea surface data collected by the RV Zeeleeuw from 2005-05-13 07:17:48 to 2005-05-13 13:50:20
                                                                                    Next 1000 lines
Time Latitude Longitude Temperature Conductivity Salinity ChlorophylA
2005-05-13 07:17:59 51°13.595 2°56.1 18.6603 0.071788 0.411348 2.421144
2005-05-13 07:18:04 51°13.596 2°56.098 18.7212 0.071788 0.411348 2.421144
2005-05-13 07:18:08 51°13.596 2°56.096 18.7288 0.071788 0.411341 2.387435
2005-05-13 07:18:14 51°13.597 2°56.093 18.7094 0.071788 0.411341 2.421144
2005-05-13 07:18:19 51°13.598 2°56.09 18.6692 0.071788 0.411348 2.421144
2005-05-13 07:18:24 51°13.599 2°56.086 18.7515 0.071788 0.411348 2.421144
2005-05-13 07:18:29 51°13.6 2°56.081 18.7403 0.071788 0.411341 2.387435
2005-05-13 07:18:35 51°13.602 2°56.075 18.7542 0.071788 0.411334 2.387435
2005-05-13 07:18:40 51°13.604 2°56.069 18.8334 0.071788 0.411334 2.387435
2005-05-13 07:18:45 51°13.607 2°56.062 18.7872 0.071788 0.411306 2.387435
2005-05-13 07:18:50 51°13.609 2°56.055 18.7426 0.071788 0.411299 2.387435
2005-05-13 07:18:55 51°13.611 2°56.047 18.7439 0.071788 0.411277 2.387435
2005-05-13 07:18:59 51°13.613 2°56.04 18.7955 0.071788 0.411277 2.387435
2005-05-13 07:19:05 51°13.616 2°56.03 18.794 0.071788 0.411284 2.421144
2005-05-13 07:19:09 51°13.618 2°56.022 18.8053 0.071788 0.411284 2.421144
2005-05-13 07:19:15 51°13.621 2°56.012 18.8182 0.071788 0.411292 2.387435
2005-05-13 07:19:20 51°13.624 2°56.002 18.8312 0.071788 0.41132 2.421144
2005-05-13 07:19:24 51°13.627 2°55.993 18.8079 0.071788 0.411341 2.387435
2005-05-13 07:19:28 51°13.629 2°55.986 18.813 0.071788 0.411376 2.387435
2005-05-13 07:19:34 51°13.633 2°55.973 18.8135 0.071788 0.411397 2.387435
2005-05-13 07:19:39 51°13.636 2°55.963 18.8089 0.071788 0.411397 2.387435
2005-05-13 07:19:45 51°13.641 2°55.952 18.8081 0.071788 0.411426 2.421144
2005-05-13 07:19:49 51°13.644 2°55.943 18.8078 0.071788 0.411433 2.387435
2005-05-13 07:19:55 51°13.649 2°55.932 18.8037 0.071788 0.411433 2.387435
2005-05-13 07:20:00 51°13.653 2°55.922 18.8689 0.071788 0.411433 2.387435
2005-05-13 07:20:05 51°13.656 2°55.913 18.8169 0.071788 0.411433 2.421144
2005-05-13 07:20:10 51°13.66 2°55.904 18.8167 0.071788 0.411433 2.421144
2005-05-13 07:20:15 51°13.664 2°55.894 18.8181 0.071788 0.411426 2.387435
2005-05-13 07:20:19 51°13.667 2°55.887 18.817 0.071788 0.411419 2.421144
2005-05-13 07:20:24 51°13.672 2°55.876 18.8128 0.071788 0.411411 2.387435
2005-05-13 07:20:30 51°13.678 2°55.866 18.8063 0.071788 0.41139 2.421144
2005-05-13 07:20:35 51°13.683 2°55.855 18.8096 0.071788 0.411397 2.387435
2005-05-13 07:20:39 51°13.687 2°55.846 18.8147 0.071788 0.411397 2.387435
2005-05-13 07:20:44 51°13.692 2°55.836 18.8199 0.071788 0.411404 2.421144
2005-05-13 07:20:49 51°13.697 2°55.825 18.824 0.071788 0.411411 2.421144
2005-05-13 07:20:54 51°13.701 2°55.815 18.8308 0.071788 0.411419 2.387435
2005-05-13 07:21:00 51°13.706 2°55.803 18.8427 0.071788 0.411433 2.387435
2005-05-13 07:21:05 51°13.71 2°55.794 18.8325 0.071788 0.411433 2.387435
2005-05-13 07:21:09 51°13.713 2°55.785 18.8029 0.071788 0.41144 2.421144
2005-05-13 07:21:15 51°13.717 2°55.775 18.7883 0.071788 0.41144 2.387435
2005-05-13 07:21:19 51°13.72 2°55.767 18.8054 0.071788 0.411447 2.387435
2005-05-13 07:21:24 51°13.723 2°55.759 18.8034 0.071788 0.411454 2.387435
2005-05-13 07:21:28 51°13.725 2°55.752 18.8015 0.071788 0.411447 2.421144
2005-05-13 07:21:34 51°13.728 2°55.742 18.8055 0.071788 0.411447 2.421144
2005-05-13 07:21:40 51°13.73 2°55.735 18.8985 0.071788 0.41144 2.387435
2005-05-13 07:21:44 51°13.731 2°55.732 18.9382 0.071788 0.41144 2.387435
2005-05-13 07:21:49 51°13.732 2°55.731 18.9354 0.071788 0.411454 2.387435
2005-05-13 07:21:54 51°13.733 2°55.731 18.8923 0.071788 0.411489 2.421144
2005-05-13 07:21:59 51°13.733 2°55.733 18.8854 0.071788 0.411517 2.387435
2005-05-13 07:22:04 51°13.734 2°55.736 18.8739 0.071788 0.411531 2.421144
2005-05-13 07:22:08 51°13.735 2°55.738 18.794 0.071788 0.411531 2.421144
2005-05-13 07:22:14 51°13.736 2°55.742 18.5766 0.071788 0.411524 2.387435
2005-05-13 07:22:19 51°13.737 2°55.743 18.5556 0.071788 0.411517 2.387435
2005-05-13 07:22:24 51°13.738 2°55.745 18.6581 0.071788 0.411489 2.387435
2005-05-13 07:22:29 51°13.739 2°55.745 18.682 0.071788 0.411461 2.387435
2005-05-13 07:22:34 51°13.739 2°55.745 18.7138 0.071788 0.411447 2.421144
2005-05-13 07:22:39 51°13.739 2°55.744 18.5754 0.071788 0.411447 2.421144
2005-05-13 07:22:43 51°13.739 2°55.743 18.6748 0.071788 0.41144 2.387435
2005-05-13 07:22:48 51°13.738 2°55.741 18.7347 0.071788 0.411454 2.421144
2005-05-13 07:22:54 51°13.737 2°55.738 18.7588 0.071788 0.411454 2.421144
2005-05-13 07:22:59 51°13.737 2°55.736 18.7337 0.071788 0.411468 2.387435
2005-05-13 07:23:04 51°13.735 2°55.732 18.7348 0.071788 0.411468 2.387435
2005-05-13 07:23:09 51°13.734 2°55.729 18.7398 0.071788 0.411489 2.387435
2005-05-13 07:23:15 51°13.732 2°55.725 18.7959 0.071788 0.411503 2.387435
2005-05-13 07:23:20 51°13.731 2°55.721 18.8206 0.071788 0.41151 2.421144
2005-05-13 07:23:24 51°13.729 2°55.718 18.819 0.071788 0.411524 2.387435
2005-05-13 07:23:30 51°13.727 2°55.714 18.8067 0.071788 0.411517 2.421144
2005-05-13 07:23:35 51°13.726 2°55.711 18.7855 0.071788 0.411517 2.421144
2005-05-13 07:23:40 51°13.725 2°55.709 18.8003 0.071788 0.411517 2.387435
2005-05-13 07:23:44 51°13.724 2°55.708 18.8441 0.071788 0.411524 2.421144
2005-05-13 07:23:49 51°13.725 2°55.707 18.8791 0.071788 0.411524 2.387435
2005-05-13 07:23:54 51°13.725 2°55.706 18.8835 0.071788 0.411524 2.387435
2005-05-13 07:23:59 51°13.727 2°55.706 18.899 0.071788 0.411531 2.387435
2005-05-13 07:24:04 51°13.729 2°55.705 18.8853 0.071788 0.411539 2.387435
2005-05-13 07:24:08 51°13.731 2°55.704 18.8866 0.071788 0.411539 2.387435
2005-05-13 07:24:14 51°13.734 2°55.702 18.8963 0.071788 0.411546 2.387435
2005-05-13 07:24:18 51°13.736 2°55.701 18.8882 0.071788 0.411546 2.387435
2005-05-13 07:24:24 51°13.74 2°55.698 18.8652 0.071788 0.411553 2.387435
2005-05-13 07:24:28 51°13.742 2°55.696 18.8571 0.071788 0.411531 2.387435
2005-05-13 07:24:34 51°13.747 2°55.692 18.8451 0.071788 0.411517 2.387435
2005-05-13 07:24:39 51°13.751 2°55.689 18.7573 0.071788 0.411517 2.387435
2005-05-13 07:24:44 51°13.756 2°55.685 18.7152 0.071788 0.411496 2.387435
2005-05-13 07:24:49 51°13.76 2°55.681 18.6556 0.071788 0.411482 2.387435
2005-05-13 07:24:54 51°13.766 2°55.677 18.6531 0.071788 0.411482 2.387435
2005-05-13 07:24:59 51°13.771 2°55.673 18.6486 0.071788 0.411496 2.387435
2005-05-13 07:25:04 51°13.777 2°55.669 18.7015 0.071788 0.411496 2.387435
2005-05-13 07:25:08 51°13.783 2°55.665 18.6948 0.071788 0.41151 2.353725
2005-05-13 07:25:14 51°13.791 2°55.66 18.6919 0.071788 0.411539 2.387435
2005-05-13 07:25:19 51°13.797 2°55.656 18.661 0.071788 0.41156 2.387435
2005-05-13 07:25:24 51°13.805 2°55.651 18.6487 0.071788 0.411574 2.387435
2005-05-13 07:25:29 51°13.812 2°55.647 18.6589 0.071788 0.411588 2.387435
2005-05-13 07:25:34 51°13.82 2°55.642 18.675 0.071788 0.411602 2.353725
2005-05-13 07:25:39 51°13.827 2°55.638 18.6857 0.071788 0.411602 2.353725
2005-05-13 07:25:44 51°13.834 2°55.633 18.6994 0.071788 0.411609 2.387435
2005-05-13 07:25:48 51°13.841 2°55.629 18.7092 0.071788 0.411609 2.353725
2005-05-13 07:25:52 51°13.848 2°55.625 18.7334 0.071788 0.411602 2.387435
2005-05-13 07:25:59 51°13.858 2°55.62 18.7523 0.071788 0.411602 2.387435
2005-05-13 07:26:04 51°13.867 2°55.614 18.7621 0.071788 0.411602 2.387435
2005-05-13 07:26:09 51°13.875 2°55.609 18.7554 0.071788 0.411602 2.387435
2005-05-13 07:26:14 51°13.884 2°55.603 18.7515 0.071788 0.411602 2.353725
2005-05-13 07:26:19 51°13.893 2°55.598 18.744 0.071788 0.411595 2.353725
2005-05-13 07:26:24 51°13.903 2°55.591 18.7333 0.071788 0.411609 2.387435
2005-05-13 07:26:29 51°13.912 2°55.585 18.7098 0.071788 0.411616 2.353725
2005-05-13 07:26:33 51°13.919 2°55.581 18.6973 0.071788 0.411616 2.353725
2005-05-13 07:26:39 51°13.93 2°55.573 18.6291 0.071788 0.411616 2.387435
2005-05-13 07:26:44 51°13.941 2°55.566 18.6043 0.071684 0.410999 2.353725
2005-05-13 07:26:49 51°13.95 2°55.559 18.6595 0.071788 0.411616 2.353725
2005-05-13 07:26:53 51°13.957 2°55.554 18.6754 0.071788 0.411623 2.387435
2005-05-13 07:26:59 51°13.969 2°55.546 18.6641 0.071788 0.411623 2.387435
2005-05-13 07:27:04 51°13.98 2°55.539 18.6354 0.071788 0.41163 2.387435
2005-05-13 07:27:08 51°13.989 2°55.532 18.593 0.071788 0.41163 2.387435
2005-05-13 07:27:14 51°14.002 2°55.523 18.5738 0.071788 0.411623 2.353725
2005-05-13 07:27:19 51°14.012 2°55.517 18.554 0.071788 0.411623 2.387435
2005-05-13 07:27:24 51°14.024 2°55.509 18.5707 0.071788 0.411623 2.387435
2005-05-13 07:27:29 51°14.035 2°55.501 18.5913 0.071788 0.41163 2.387435
2005-05-13 07:27:34 51°14.045 2°55.494 18.6831 0.071788 0.411637 2.353725
2005-05-13 07:27:39 51°14.055 2°55.488 18.7095 0.071788 0.411637 2.353725
2005-05-13 07:27:44 51°14.067 2°55.48 18.6413 0.071788 0.411644 2.387435
2005-05-13 07:27:49 51°14.077 2°55.473 18.7204 0.071684 0.411035 2.353725
2005-05-13 07:27:54 51°14.088 2°55.465 18.703 0.071684 0.411035 2.387435
2005-05-13 07:27:59 51°14.098 2°55.458 18.6946 0.071788 0.411659 2.387435
2005-05-13 07:28:04 51°14.109 2°55.45 18.7506 0.071788 0.411659 2.387435
2005-05-13 07:28:09 51°14.119 2°55.443 18.736 0.071788 0.411659 2.353725
2005-05-13 07:28:14 51°14.131 2°55.434 18.7096 0.071788 0.411659 2.353725
2005-05-13 07:28:19 51°14.14 2°55.427 18.7715 0.071788 0.411659 2.353725
2005-05-13 07:28:24 51°14.151 2°55.418 18.7731 0.071788 0.411666 2.387435
2005-05-13 07:28:28 51°14.159 2°55.411 18.8458 0.071788 0.411673 2.353725
2005-05-13 07:28:33 51°14.168 2°55.403 18.7301 0.071788 0.411673 2.353725
2005-05-13 07:28:39 51°14.18 2°55.391 18.8305 0.071684 0.411063 2.353725
2005-05-13 07:28:44 51°14.19 2°55.38 18.7848 0.071788 0.411687 2.353725
2005-05-13 07:28:48 51°14.197 2°55.371 18.8201 0.071788 0.411694 2.387435
2005-05-13 07:28:54 51°14.208 2°55.357 18.7491 0.071788 0.411694 2.353725
2005-05-13 07:28:59 51°14.217 2°55.345 18.7473 0.071684 0.411077 2.353725
2005-05-13 07:29:04 51°14.227 2°55.331 18.6383 0.071788 0.411694 2.353725
2005-05-13 07:29:09 51°14.235 2°55.319 18.7274 0.071788 0.411694 2.353725
2005-05-13 07:29:14 51°14.246 2°55.302 18.7767 0.071684 0.411077 2.387435
2005-05-13 07:29:19 51°14.254 2°55.288 18.7157 0.071684 0.411077 2.353725
2005-05-13 07:29:24 51°14.264 2°55.27 18.6406 0.071684 0.411077 2.387435
2005-05-13 07:29:28 51°14.271 2°55.256 18.6764 0.071684 0.411084 2.353725
2005-05-13 07:29:34 51°14.282 2°55.235 18.6491 0.071684 0.411077 2.387435
2005-05-13 07:29:39 51°14.29 2°55.218 18.6663 0.071684 0.411077 2.387435
2005-05-13 07:29:43 51°14.298 2°55.202 18.6574 0.071684 0.411077 2.387435
2005-05-13 07:29:49 51°14.307 2°55.18 18.7181 0.071684 0.411077 2.353725
2005-05-13 07:29:54 51°14.316 2°55.161 18.6431 0.071684 0.411077 2.387435
2005-05-13 07:29:59 51°14.324 2°55.141 18.6115 0.071684 0.411077 2.387435
2005-05-13 07:30:04 51°14.333 2°55.118 18.7374 0.071684 0.411077 2.387435
2005-05-13 07:30:08 51°14.34 2°55.101 18.5994 0.071684 0.411091 2.387435
2005-05-13 07:30:14 51°14.35 2°55.074 18.3993 0.071684 0.411091 2.387435
2005-05-13 07:30:19 51°14.357 2°55.052 18.3697 0.071684 0.411105 2.353725
2005-05-13 07:30:24 51°14.365 2°55.027 18.5795 0.071684 0.411105 2.353725
2005-05-13 07:30:28 51°14.372 2°55.008 18.5428 0.071684 0.411154 2.353725
2005-05-13 07:30:34 51°14.38 2°54.98 18.4397 0.071684 0.411154 2.353725
2005-05-13 07:30:39 51°14.387 2°54.954 18.6348 0.071684 0.41119 2.353725
2005-05-13 07:30:44 51°14.393 2°54.925 18.4883 0.071788 0.411821 2.387435
2005-05-13 07:30:48 51°14.398 2°54.903 18.4222 0.071788 0.411814 2.320016
2005-05-13 07:30:54 51°14.403 2°54.872 18.3355 0.071684 0.411147 2.387435
2005-05-13 07:30:58 51°14.408 2°54.847 18.5464 0.071684 0.411077 2.353725
2005-05-13 07:31:04 51°14.415 2°54.813 18.4353 0.071684 0.411013 2.353725
2005-05-13 07:31:08 51°14.419 2°54.79 18.4861 0.071684 0.411013 2.353725
2005-05-13 07:31:14 51°14.425 2°54.759 18.4879 0.071684 0.410992 2.353725
2005-05-13 07:31:19 51°14.431 2°54.731 18.4619 0.071684 0.411013 2.353725
2005-05-13 07:31:24 51°14.438 2°54.699 18.3052 0.071684 0.411049 2.320016
2005-05-13 07:31:29 51°14.444 2°54.673 18.2899 0.071684 0.411084 2.353725
2005-05-13 07:31:34 51°14.451 2°54.641 18.2089 0.071684 0.41114 2.353725
2005-05-13 07:31:39 51°14.457 2°54.616 18.2513 0.071684 0.41114 2.353725
2005-05-13 07:31:44 51°14.464 2°54.587 18.323 0.071684 0.411162 2.387435
2005-05-13 07:31:48 51°14.471 2°54.562 18.3252 0.071684 0.411197 2.353725
2005-05-13 07:31:54 51°14.48 2°54.528 18.3395 0.071684 0.411218 2.353725
2005-05-13 07:31:59 51°14.486 2°54.503 18.1754 0.071684 0.41119 2.387435
2005-05-13 07:32:03 51°14.493 2°54.477 18.2437 0.071684 0.41119 2.387435
2005-05-13 07:32:09 51°14.501 2°54.444 18.2538 0.071684 0.411183 2.353725
2005-05-13 07:32:14 51°14.509 2°54.413 18.2803 0.071684 0.411169 2.353725
2005-05-13 07:32:19 51°14.516 2°54.387 18.2867 0.071684 0.411147 2.320016
2005-05-13 07:32:24 51°14.523 2°54.356 18.1662 0.071684 0.411133 2.353725
2005-05-13 07:32:28 51°14.529 2°54.333 18.2404 0.071684 0.411147 2.320016
2005-05-13 07:32:34 51°14.538 2°54.298 18.2599 0.071684 0.411169 2.353725
2005-05-13 07:32:39 51°14.545 2°54.269 18.2307 0.071684 0.411169 2.353725
2005-05-13 07:32:44 51°14.552 2°54.239 18.2443 0.071684 0.41119 2.320016
2005-05-13 07:32:49 51°14.559 2°54.214 18.2659 0.071684 0.411197 2.353725
2005-05-13 07:32:54 51°14.567 2°54.183 18.3233 0.071684 0.411232 2.353725
2005-05-13 07:32:59 51°14.573 2°54.157 18.1579 0.071684 0.411232 2.320016
2005-05-13 07:33:03 51°14.579 2°54.134 18.2394 0.071684 0.411267 2.320016
2005-05-13 07:33:08 51°14.588 2°54.102 18.1635 0.071684 0.411267 2.320016
2005-05-13 07:33:14 51°14.596 2°54.067 18.2295 0.071684 0.411289 2.320016
2005-05-13 07:33:19 51°14.602 2°54.041 18.2263 0.071684 0.411289 2.353725
2005-05-13 07:33:24 51°14.611 2°54.01 18.2514 0.071684 0.41131 2.320016
2005-05-13 07:33:29 51°14.618 2°53.981 18.1743 0.071684 0.411289 2.353725
2005-05-13 07:33:33 51°14.624 2°53.958 18.2672 0.071684 0.411289 2.353725
2005-05-13 07:33:39 51°14.633 2°53.927 18.3045 0.071684 0.411267 2.353725
2005-05-13 07:33:44 51°14.64 2°53.895 18.2168 0.071684 0.411218 2.320016
2005-05-13 07:33:48 51°14.646 2°53.872 18.1816 0.071684 0.411183 2.387435
2005-05-13 07:33:54 51°14.654 2°53.84 18.2148 0.071684 0.41114 2.353725
2005-05-13 07:33:59 51°14.661 2°53.811 18.2161 0.071684 0.41114 2.320016
2005-05-13 07:34:04 51°14.669 2°53.783 18.2476 0.071684 0.41114 2.320016
2005-05-13 07:34:09 51°14.676 2°53.754 18.2981 0.071684 0.411154 2.353725
2005-05-13 07:34:14 51°14.684 2°53.723 18.2647 0.071684 0.411183 2.387435
2005-05-13 07:34:19 51°14.691 2°53.699 18.2647 0.071684 0.411218 2.320016
2005-05-13 07:34:24 51°14.699 2°53.667 18.2609 0.071684 0.41126 2.320016
2005-05-13 07:34:29 51°14.706 2°53.641 18.229 0.071684 0.411275 2.320016
2005-05-13 07:34:34 51°14.713 2°53.609 18.2856 0.071684 0.411289 2.353725
2005-05-13 07:34:39 51°14.719 2°53.581 18.2631 0.071684 0.411289 2.353725
2005-05-13 07:34:43 51°14.724 2°53.557 18.2687 0.071684 0.411282 2.353725
2005-05-13 07:34:48 51°14.73 2°53.528 18.2297 0.071684 0.411282 2.320016
2005-05-13 07:34:54 51°14.736 2°53.492 18.2566 0.071684 0.411275 2.353725
2005-05-13 07:34:59 51°14.742 2°53.461 18.2374 0.071684 0.411282 2.320016
2005-05-13 07:35:04 51°14.747 2°53.431 18.2971 0.071684 0.411267 2.353725
2005-05-13 07:35:08 51°14.75 2°53.407 18.2864 0.071684 0.411267 2.353725
2005-05-13 07:35:14 51°14.755 2°53.374 18.2849 0.071684 0.411267 2.320016
2005-05-13 07:35:19 51°14.76 2°53.34 18.2731 0.071684 0.411267 2.353725
2005-05-13 07:35:24 51°14.765 2°53.31 18.2613 0.071684 0.411289 2.320016
2005-05-13 07:35:29 51°14.768 2°53.282 18.28 0.071684 0.41131 2.353725
2005-05-13 07:35:34 51°14.772 2°53.249 18.2697 0.071684 0.41131 2.353725
2005-05-13 07:35:39 51°14.776 2°53.22 18.2913 0.071684 0.41131 2.320016
2005-05-13 07:35:44 51°14.78 2°53.187 18.2473 0.071684 0.41131 2.320016
2005-05-13 07:35:48 51°14.783 2°53.162 18.264 0.071684 0.41131 2.353725
2005-05-13 07:35:54 51°14.787 2°53.124 18.2541 0.071684 0.411296 2.353725
2005-05-13 07:35:59 51°14.79 2°53.096 18.2526 0.071684 0.411275 2.353725
2005-05-13 07:36:04 51°14.792 2°53.065 18.3011 0.071684 0.411275 2.353725
2005-05-13 07:36:09 51°14.795 2°53.034 18.2923 0.071684 0.411282 2.320016
2005-05-13 07:36:14 51°14.797 2°52.999 18.2961 0.071684 0.411275 2.353725
2005-05-13 07:36:19 51°14.798 2°52.97 18.2475 0.071684 0.411282 2.320016
2005-05-13 07:36:24 51°14.8 2°52.939 18.2721 0.071684 0.411317 2.320016
2005-05-13 07:36:28 51°14.801 2°52.91 18.3081 0.071684 0.411366 2.286306
2005-05-13 07:36:34 51°14.802 2°52.872 18.2599 0.071684 0.411381 2.320016
2005-05-13 07:36:39 51°14.803 2°52.843 18.2618 0.071684 0.411381 2.320016
2005-05-13 07:36:44 51°14.804 2°52.811 18.3029 0.071684 0.411366 2.320016
2005-05-13 07:36:48 51°14.804 2°52.783 18.2994 0.071684 0.411352 2.320016
2005-05-13 07:36:54 51°14.804 2°52.745 18.3258 0.071684 0.411331 2.320016
2005-05-13 07:36:59 51°14.805 2°52.713 18.3053 0.071684 0.411296 2.320016
2005-05-13 07:37:04 51°14.805 2°52.684 18.3128 0.071684 0.411275 2.353725
2005-05-13 07:37:09 51°14.806 2°52.652 18.2957 0.071684 0.411275 2.353725
2005-05-13 07:37:13 51°14.806 2°52.627 18.3007 0.071684 0.411253 2.320016
2005-05-13 07:37:19 51°14.807 2°52.589 18.2816 0.071684 0.411253 2.353725
2005-05-13 07:37:24 51°14.808 2°52.554 18.2927 0.071684 0.411267 2.286306
2005-05-13 07:37:29 51°14.809 2°52.525 18.2629 0.071684 0.411303 2.353725
2005-05-13 07:37:34 51°14.81 2°52.49 18.2707 0.071684 0.411303 2.353725
2005-05-13 07:37:39 51°14.811 2°52.462 18.3028 0.071684 0.411324 2.320016
2005-05-13 07:37:44 51°14.811 2°52.427 18.2784 0.071684 0.411388 2.353725
2005-05-13 07:37:49 51°14.812 2°52.398 18.2825 0.071684 0.411423 2.353725
2005-05-13 07:37:54 51°14.813 2°52.366 18.2808 0.071684 0.411451 2.320016
2005-05-13 07:37:59 51°14.814 2°52.335 18.2806 0.071684 0.411472 2.320016
2005-05-13 07:38:04 51°14.814 2°52.299 18.3115 0.071684 0.411458 2.286306
2005-05-13 07:38:09 51°14.814 2°52.271 18.3153 0.071684 0.411458 2.286306
2005-05-13 07:38:14 51°14.815 2°52.235 18.3116 0.071684 0.411465 2.320016
2005-05-13 07:38:19 51°14.816 2°52.206 18.2827 0.071684 0.411465 2.353725
2005-05-13 07:38:24 51°14.817 2°52.174 18.3267 0.071684 0.411451 2.353725
2005-05-13 07:38:29 51°14.818 2°52.142 18.3286 0.071684 0.411472 2.353725
2005-05-13 07:38:34 51°14.819 2°52.107 18.3087 0.071684 0.411465 2.320016
2005-05-13 07:38:39 51°14.821 2°52.078 18.3411 0.071684 0.411465 2.320016
2005-05-13 07:38:44 51°14.822 2°52.043 18.2793 0.071684 0.411458 2.320016
2005-05-13 07:38:48 51°14.823 2°52.017 18.3233 0.071684 0.411451 2.286306
2005-05-13 07:38:54 51°14.824 2°51.982 18.3307 0.071684 0.411423 2.353725
2005-05-13 07:38:59 51°14.825 2°51.95 18.2727 0.071684 0.411409 2.286306
2005-05-13 07:39:04 51°14.826 2°51.918 18.2902 0.071684 0.411409 2.286306
2005-05-13 07:39:08 51°14.826 2°51.892 18.3198 0.071684 0.411395 2.353725
2005-05-13 07:39:14 51°14.827 2°51.853 18.311 0.071684 0.411395 2.320016
2005-05-13 07:39:19 51°14.828 2°51.822 18.3302 0.071684 0.411423 2.320016
2005-05-13 07:39:23 51°14.827 2°51.792 18.3005 0.071684 0.411444 2.320016
2005-05-13 07:39:29 51°14.828 2°51.757 18.3273 0.071684 0.411458 2.320016
2005-05-13 07:39:34 51°14.828 2°51.725 18.3218 0.071684 0.411494 2.353725
2005-05-13 07:39:39 51°14.83 2°51.693 18.2671 0.071684 0.411494 2.353725
2005-05-13 07:39:44 51°14.83 2°51.657 18.3176 0.071684 0.411494 2.320016
2005-05-13 07:39:49 51°14.83 2°51.624 18.2836 0.071684 0.411472 2.320016
2005-05-13 07:39:54 51°14.833 2°51.592 18.3505 0.071684 0.411494 2.286306
2005-05-13 07:39:59 51°14.832 2°51.563 18.3229 0.071684 0.411536 2.353725
2005-05-13 07:40:04 51°14.835 2°51.527 18.3239 0.071684 0.411522 2.286306
2005-05-13 07:40:08 51°14.835 2°51.501 18.3076 0.071684 0.411522 2.286306
2005-05-13 07:40:14 51°14.837 2°51.462 18.3399 0.071684 0.411593 2.320016
2005-05-13 07:40:19 51°14.838 2°51.433 18.3376 0.071684 0.411579 2.320016
2005-05-13 07:40:24 51°14.839 2°51.401 18.3343 0.071684 0.411571 2.320016
2005-05-13 07:40:29 51°14.841 2°51.367 18.3405 0.071684 0.411536 2.320016
2005-05-13 07:40:34 51°14.842 2°51.332 18.3598 0.071684 0.411501 2.320016
2005-05-13 07:40:38 51°14.844 2°51.306 18.3459 0.071684 0.411501 2.320016
2005-05-13 07:40:44 51°14.844 2°51.271 18.3573 0.071684 0.411451 2.286306
2005-05-13 07:40:49 51°14.844 2°51.238 18.324 0.071684 0.41143 2.286306
2005-05-13 07:40:53 51°14.842 2°51.209 18.3504 0.071684 0.411423 2.353725
2005-05-13 07:40:59 51°14.84 2°51.173 18.3225 0.071684 0.411416 2.286306
2005-05-13 07:41:04 51°14.835 2°51.139 18.3557 0.071684 0.411416 2.286306
2005-05-13 07:41:09 51°14.831 2°51.11 18.3251 0.071684 0.411458 2.286306
2005-05-13 07:41:14 51°14.825 2°51.076 18.355 0.071684 0.411557 2.320016
2005-05-13 07:41:20 51°14.817 2°51.045 18.3425 0.071684 0.411557 2.320016
2005-05-13 07:41:23 51°14.812 2°51.024 18.3267 0.071684 0.411614 2.320016
2005-05-13 07:41:29 51°14.804 2°50.995 18.3215 0.071684 0.411649 2.320016
2005-05-13 07:41:34 51°14.796 2°50.966 18.3273 0.071684 0.411635 2.286306
2005-05-13 07:41:39 51°14.79 2°50.943 18.3179 0.071684 0.411635 2.286306
2005-05-13 07:41:44 51°14.786 2°50.917 18.2904 0.071684 0.411614 2.286306
2005-05-13 07:41:48 51°14.785 2°50.899 18.2995 0.071684 0.411593 2.320016
2005-05-13 07:41:53 51°14.785 2°50.878 18.3016 0.071684 0.411564 2.286306
2005-05-13 07:41:59 51°14.784 2°50.857 18.3054 0.071684 0.411557 2.286306
2005-05-13 07:42:03 51°14.784 2°50.843 18.3115 0.071684 0.411564 2.286306
2005-05-13 07:42:09 51°14.785 2°50.823 18.3167 0.071684 0.411564 2.286306
2005-05-13 07:42:12 51°14.785 2°50.812 18.3198 0.071684 0.411564 2.320016
2005-05-13 07:42:19 51°14.785 2°50.793 18.3232 0.071684 0.411586 2.320016
2005-05-13 07:42:24 51°14.785 2°50.778 18.3266 0.071684 0.411586 2.320016
2005-05-13 07:42:29 51°14.784 2°50.767 18.3219 0.071684 0.411593 2.320016
2005-05-13 07:42:34 51°14.783 2°50.754 18.3232 0.071684 0.4116 2.286306
2005-05-13 07:42:39 51°14.782 2°50.744 18.3282 0.071684 0.4116 2.286306
2005-05-13 07:42:44 51°14.78 2°50.733 18.3355 0.071684 0.4116 2.320016
2005-05-13 07:42:48 51°14.779 2°50.725 18.3351 0.071684 0.411607 2.320016
2005-05-13 07:42:55 51°14.776 2°50.713 18.3282 0.071684 0.411607 2.320016
2005-05-13 07:42:59 51°14.775 2°50.706 18.3379 0.071684 0.411614 2.320016
2005-05-13 07:43:04 51°14.772 2°50.696 18.3397 0.071684 0.411614 2.320016
2005-05-13 07:43:09 51°14.77 2°50.688 18.3419 0.071684 0.411621 2.286306
2005-05-13 07:43:14 51°14.768 2°50.679 18.3422 0.071684 0.411621 2.286306
2005-05-13 07:43:19 51°14.766 2°50.671 18.3435 0.071684 0.411628 2.320016
2005-05-13 07:43:24 51°14.763 2°50.663 18.3383 0.071684 0.411635 2.286306
2005-05-13 07:43:28 51°14.761 2°50.655 18.3474 0.071684 0.411642 2.286306
2005-05-13 07:43:34 51°14.758 2°50.645 18.3427 0.071684 0.411649 2.320016
2005-05-13 07:43:39 51°14.757 2°50.637 18.3474 0.071684 0.411649 2.320016
2005-05-13 07:43:44 51°14.755 2°50.629 18.349 0.071684 0.411642 2.286306
2005-05-13 07:43:48 51°14.752 2°50.622 18.3565 0.071684 0.411642 2.320016
2005-05-13 07:43:54 51°14.75 2°50.611 18.3497 0.071684 0.411642 2.286306
2005-05-13 07:43:59 51°14.748 2°50.603 18.3537 0.071684 0.411642 2.320016
2005-05-13 07:44:04 51°14.746 2°50.596 18.3607 0.071684 0.411635 2.320016
2005-05-13 07:44:09 51°14.745 2°50.588 18.3624 0.071684 0.411635 2.320016
2005-05-13 07:44:14 51°14.743 2°50.58 18.3599 0.071684 0.411628 2.286306
2005-05-13 07:44:19 51°14.741 2°50.572 18.3581 0.071684 0.411621 2.320016
2005-05-13 07:44:24 51°14.739 2°50.563 18.3633 0.071684 0.411621 2.286306
2005-05-13 07:44:29 51°14.738 2°50.556 18.3589 0.071684 0.411614 2.320016
2005-05-13 07:44:34 51°14.737 2°50.548 18.3688 0.071684 0.411614 2.320016
2005-05-13 07:44:39 51°14.735 2°50.541 18.3698 0.071684 0.411635 2.286306
2005-05-13 07:44:44 51°14.734 2°50.532 18.3619 0.071684 0.411656 2.286306
2005-05-13 07:44:49 51°14.733 2°50.525 18.3716 0.071684 0.411671 2.320016
2005-05-13 07:44:54 51°14.731 2°50.516 18.3759 0.071684 0.411685 2.286306
2005-05-13 07:44:59 51°14.73 2°50.508 18.3696 0.071684 0.411685 2.286306
2005-05-13 07:45:04 51°14.728 2°50.499 18.3699 0.071684 0.411692 2.320016
2005-05-13 07:45:08 51°14.726 2°50.492 18.3769 0.071684 0.411692 2.320016
2005-05-13 07:45:14 51°14.723 2°50.482 18.3803 0.071684 0.411692 2.320016
2005-05-13 07:45:19 51°14.721 2°50.475 18.3778 0.071684 0.411699 2.320016
2005-05-13 07:45:24 51°14.719 2°50.465 18.3822 0.071684 0.411699 2.320016
2005-05-13 07:45:29 51°14.716 2°50.457 18.3786 0.071684 0.411706 2.320016
2005-05-13 07:45:34 51°14.714 2°50.448 18.3773 0.071684 0.411692 2.286306
2005-05-13 07:45:39 51°14.712 2°50.441 18.3826 0.071684 0.411692 2.286306
2005-05-13 07:45:44 51°14.709 2°50.433 18.384 0.071684 0.411685 2.286306
2005-05-13 07:45:49 51°14.706 2°50.424 18.3822 0.071684 0.411699 2.320016
2005-05-13 07:45:54 51°14.703 2°50.415 18.3831 0.071684 0.411699 2.286306
2005-05-13 07:45:59 51°14.7 2°50.407 18.387 0.071684 0.41172 2.286306
2005-05-13 07:46:03 51°14.698 2°50.4 18.3888 0.071684 0.41172 2.286306
2005-05-13 07:46:08 51°14.696 2°50.391 18.3867 0.071684 0.41172 2.286306
2005-05-13 07:46:14 51°14.693 2°50.381 18.3815 0.071684 0.411727 2.286306
2005-05-13 07:46:19 51°14.69 2°50.373 18.3841 0.071684 0.411727 2.320016
2005-05-13 07:46:24 51°14.688 2°50.363 18.3839 0.071684 0.411741 2.252597
2005-05-13 07:46:29 51°14.685 2°50.355 18.3954 0.071684 0.411748 2.320016
2005-05-13 07:46:33 51°14.683 2°50.347 18.3973 0.071684 0.411748 2.320016
2005-05-13 07:46:40 51°14.68 2°50.336 18.3939 0.071684 0.411756 2.320016
2005-05-13 07:46:43 51°14.678 2°50.33 18.3969 0.071684 0.411748 2.320016
2005-05-13 07:46:48 51°14.676 2°50.321 18.4013 0.071684 0.411741 2.286306
2005-05-13 07:46:54 51°14.672 2°50.309 18.3929 0.071684 0.411741 2.286306
2005-05-13 07:46:59 51°14.67 2°50.3 18.3993 0.071684 0.411741 2.286306
2005-05-13 07:47:04 51°14.666 2°50.289 18.3979 0.071684 0.411756 2.320016
2005-05-13 07:47:08 51°14.664 2°50.281 18.4025 0.071684 0.411756 2.320016
2005-05-13 07:47:14 51°14.661 2°50.27 18.4023 0.071684 0.411741 2.320016
2005-05-13 07:47:19 51°14.659 2°50.261 18.3965 0.071684 0.411748 2.286306
2005-05-13 07:47:24 51°14.656 2°50.251 18.4066 0.071684 0.411756 2.320016
2005-05-13 07:47:28 51°14.654 2°50.244 18.4028 0.071684 0.411763 2.286306
2005-05-13 07:47:34 51°14.652 2°50.234 18.4041 0.071684 0.411763 2.320016
2005-05-13 07:47:39 51°14.649 2°50.223 18.4044 0.071684 0.411763 2.320016
2005-05-13 07:47:44 51°14.648 2°50.214 18.4026 0.071684 0.411777 2.320016
2005-05-13 07:47:48 51°14.645 2°50.207 18.4123 0.071684 0.411777 2.286306
2005-05-13 07:47:54 51°14.643 2°50.195 18.4066 0.071684 0.41177 2.286306
2005-05-13 07:47:59 51°14.641 2°50.187 18.4073 0.071684 0.411784 2.320016
2005-05-13 07:48:04 51°14.639 2°50.176 18.4174 0.071684 0.411791 2.320016
2005-05-13 07:48:08 51°14.637 2°50.169 18.4168 0.071684 0.411791 2.320016
2005-05-13 07:48:14 51°14.635 2°50.158 18.4181 0.071684 0.411798 2.286306
2005-05-13 07:48:19 51°14.633 2°50.15 18.4192 0.071684 0.411784 2.320016
2005-05-13 07:48:24 51°14.631 2°50.141 18.4117 0.071684 0.411784 2.252597
2005-05-13 07:48:28 51°14.629 2°50.132 18.4174 0.071684 0.411798 2.286306
2005-05-13 07:48:34 51°14.627 2°50.122 18.4224 0.071684 0.411798 2.320016
2005-05-13 07:48:39 51°14.625 2°50.114 18.4226 0.071684 0.411798 2.320016
2005-05-13 07:48:43 51°14.623 2°50.106 18.1528 0.071684 0.411805 2.252597
2005-05-13 07:48:49 51°14.621 2°50.097 14.1352 0.071684 0.411812 2.286306
2005-05-13 07:48:54 51°14.619 2°50.088 13.2113 0.071788 0.416116 4.645965
2005-05-13 07:48:59 51°14.617 2°50.081 12.664 0.17704 1.062737 3.80323
2005-05-13 07:49:04 51°14.615 2°50.072 12.5605 0.097258 0.563785 27.871742
2005-05-13 07:49:08 51°14.614 2°50.065 12.3956 0.097258 0.563785 27.871742
2005-05-13 07:49:14 51°14.611 2°50.057 12.3153 1.106275 7.205738 28.107708
2005-05-13 07:49:19 51°14.608 2°50.051 12.1417 1.583797 10.746253 23.961452
2005-05-13 07:49:23 51°14.607 2°50.044 12.0851 2.099738 15.292162 20.287127
2005-05-13 07:49:29 51°14.604 2°50.035 12.0417 3.263484 25.688971 20.69164
2005-05-13 07:49:32 51°14.602 2°50.03 12.0175 3.476995 28.296723 20.421965
2005-05-13 07:49:39 51°14.599 2°50.02 11.9888 3.476995 28.296723 20.421965
2005-05-13 07:49:44 51°14.596 2°50.012 12.0501 3.520406 29.10911 19.478101
2005-05-13 07:49:48 51°14.594 2°50.006 11.9723 3.504397 29.31406 18.938751
2005-05-13 07:49:54 51°14.591 2°49.998 11.9626 3.491442 29.383392 18.197144
2005-05-13 07:49:59 51°14.588 2°49.992 11.9317 3.495343 29.585182 17.556665
2005-05-13 07:50:04 51°14.585 2°49.985 11.9709 3.477856 29.5111 17.691503
2005-05-13 07:50:09 51°14.582 2°49.978 11.9969 3.477856 29.5111 17.691503
2005-05-13 07:50:14 51°14.579 2°49.972 11.9504 3.475118 29.558595 17.86005
2005-05-13 07:50:19 51°14.577 2°49.966 11.9237 3.467113 29.525015 17.455537
2005-05-13 07:50:24 51°14.573 2°49.96 11.899 3.422975 29.146985 17.253281
2005-05-13 07:50:28 51°14.57 2°49.956 11.8985 3.450048 29.432258 17.051024
2005-05-13 07:50:34 51°14.566 2°49.949 11.9199 3.443622 29.388126 17.28699
2005-05-13 07:50:39 51°14.564 2°49.943 11.8708 3.443622 29.388126 17.28699
2005-05-13 07:50:43 51°14.561 2°49.939 11.8907 3.430771 29.278848 17.388118
2005-05-13 07:50:49 51°14.557 2°49.932 11.8963 3.438988 29.372015 17.556665
2005-05-13 07:50:54 51°14.554 2°49.927 11.8669 3.446783 29.465654 17.3207
2005-05-13 07:50:59 51°14.55 2°49.921 11.8617 3.431088 29.32741 17.522956
2005-05-13 07:51:04 51°14.547 2°49.916 11.886 3.442149 29.445252 17.489247
2005-05-13 07:51:09 51°14.544 2°49.912 11.862 3.442149 29.445252 17.489247
2005-05-13 07:51:14 51°14.54 2°49.907 11.8359 3.464165 29.669159 17.051024
2005-05-13 07:51:19 51°14.537 2°49.902 11.8286 3.450471 29.553433 17.657794
2005-05-13 07:51:24 51°14.533 2°49.897 11.8572 3.438462 29.44375 17.3207
2005-05-13 07:51:29 51°14.53 2°49.893 11.8455 3.461321 29.665886 17.185862
2005-05-13 07:51:34 51°14.527 2°49.889 11.8269 3.437514 29.446539 17.118443
2005-05-13 07:51:39 51°14.523 2°49.884 11.821 3.437514 29.446539 17.118443
2005-05-13 07:51:44 51°14.52 2°49.879 11.8265 3.457635 29.642715 17.421828
2005-05-13 07:51:49 51°14.516 2°49.876 11.8335 3.452052 29.599003 17.253281
2005-05-13 07:51:54 51°14.513 2°49.872 11.822 3.442255 29.517081 17.489247
2005-05-13 07:51:59 51°14.51 2°49.868 11.7964 3.443941 29.53747 16.882477
2005-05-13 07:52:04 51°14.506 2°49.863 11.7862 3.44847 29.586797 17.455537
2005-05-13 07:52:08 51°14.503 2°49.86 11.8044 3.44847 29.586797 17.455537
2005-05-13 07:52:14 51°14.499 2°49.855 11.7985 3.455107 29.656833 17.657794
2005-05-13 07:52:19 51°14.496 2°49.852 11.8123 3.444994 29.568085 17.455537
2005-05-13 07:52:24 51°14.493 2°49.848 11.7901 3.437094 29.498517 17.185862
2005-05-13 07:52:29 51°14.49 2°49.845 11.7923 3.45121 29.63914 17.489247
2005-05-13 07:52:34 51°14.487 2°49.84 11.7857 3.436251 29.50546 17.556665
2005-05-13 07:52:39 51°14.484 2°49.837 11.7668 3.436251 29.50546 17.556665
2005-05-13 07:52:44 51°14.481 2°49.833 11.7875 3.456898 29.704622 17.455537
2005-05-13 07:52:48 51°14.478 2°49.83 11.781 3.459005 29.725329 17.455537
2005-05-13 07:52:54 51°14.474 2°49.826 11.7873 3.442677 29.576022 17.152153
2005-05-13 07:52:59 51°14.472 2°49.822 11.7954 3.447944 29.632468 16.983606
2005-05-13 07:53:03 51°14.469 2°49.82 11.8112 3.453844 29.693092 17.691503
2005-05-13 07:53:09 51°14.466 2°49.816 11.779 3.453844 29.693092 17.691503
2005-05-13 07:53:14 51°14.462 2°49.811 11.7662 3.45574 29.714944 17.388118
2005-05-13 07:53:19 51°14.459 2°49.808 11.7726 3.448893 29.652168 17.354409
2005-05-13 07:53:24 51°14.456 2°49.804 11.7681 3.452474 29.686318 17.017315
2005-05-13 07:53:29 51°14.454 2°49.801 11.7612 3.451421 29.674389 17.657794
2005-05-13 07:53:34 51°14.45 2°49.796 11.7628 3.451421 29.674389 17.657794
2005-05-13 07:53:39 51°14.448 2°49.793 11.7428 3.454265 29.699623 17.489247
2005-05-13 07:53:44 51°14.445 2°49.789 11.7588 3.453844 29.699377 17.253281
2005-05-13 07:53:49 51°14.442 2°49.785 11.7688 3.451105 29.680798 17.556665
2005-05-13 07:53:54 51°14.439 2°49.781 11.7486 3.455424 29.727029 17.185862
2005-05-13 07:53:59 51°14.436 2°49.778 11.7507 3.453423 29.715484 17.017315
2005-05-13 07:54:03 51°14.434 2°49.775 11.7534 3.455635 29.736595 16.882477
2005-05-13 07:54:09 51°14.431 2°49.77 11.7539 3.455635 29.736595 16.882477
2005-05-13 07:54:14 51°14.428 2°49.766 11.7619 3.449209 29.681566 16.815059
2005-05-13 07:54:19 51°14.425 2°49.763 11.7377 3.444995 29.643872 16.949896
2005-05-13 07:54:24 51°14.422 2°49.759 11.7646 3.446681 29.659326 16.983606
2005-05-13 07:54:29 51°14.42 2°49.756 11.7423 3.446997 29.665484 17.118443
2005-05-13 07:54:34 51°14.417 2°49.752 11.7469 3.446259 29.663476 17.489247
2005-05-13 07:54:39 51°14.414 2°49.748 11.7671 3.446259 29.663476 17.489247
2005-05-13 07:54:44 51°14.411 2°49.744 11.7491 3.448261 29.681951 16.612802
2005-05-13 07:54:49 51°14.409 2°49.74 11.7345 3.438464 29.589085 17.051024
2005-05-13 07:54:54 51°14.406 2°49.737 11.7275 3.435936 29.566217 16.309418
2005-05-13 07:54:59 51°14.403 2°49.733 11.7272 3.440466 29.612576 16.74764
2005-05-13 07:55:04 51°14.4 2°49.73 11.7292 3.437516 29.586309 17.253281
2005-05-13 07:55:08 51°14.397 2°49.727 11.7416 3.437516 29.586309 17.253281
2005-05-13 07:55:14 51°14.394 2°49.723 11.7289 3.43878 29.594609 17.084734
2005-05-13 07:55:19 51°14.391 2°49.719 11.7477 3.4372 29.580159 17.185862
2005-05-13 07:55:24 51°14.388 2°49.715 11.729 3.439307 29.605282 16.646512
2005-05-13 07:55:28 51°14.385 2°49.712 11.7493 3.435726 29.576744 16.343127
2005-05-13 07:55:34 51°14.381 2°49.707 11.7475 3.44173 29.635948 16.241999
2005-05-13 07:55:39 51°14.378 2°49.703 11.7291 3.44173 29.635948 16.241999
2005-05-13 07:55:43 51°14.375 2°49.7 11.7259 3.435515 29.577869 16.511674
2005-05-13 07:55:48 51°14.372 2°49.696 11.7267 3.440045 29.623625 16.444255
2005-05-13 07:55:54 51°14.368 2°49.692 11.7226 3.445417 29.67367 15.972324
2005-05-13 07:55:59 51°14.364 2°49.688 11.7266 3.436252 29.58679 16.376836
2005-05-13 07:56:04 51°14.36 2°49.684 11.7263 3.428563 29.513391 16.511674
2005-05-13 07:56:08 51°14.357 2°49.68 11.7364 3.428563 29.513391 16.511674
2005-05-13 07:56:14 51°14.353 2°49.676 11.7295 3.441625 29.63997 16.511674
2005-05-13 07:56:19 51°14.35 2°49.671 11.7229 3.444153 29.667261 17.152153
2005-05-13 07:56:24 51°14.345 2°49.667 11.7242 3.444258 29.672044 16.376836
2005-05-13 07:56:28 51°14.342 2°49.664 11.7171 3.438886 29.622613 17.017315
2005-05-13 07:56:35 51°14.337 2°49.658 11.7309 3.440255 29.635693 16.309418
2005-05-13 07:56:39 51°14.334 2°49.654 11.7177 3.440255 29.635693 16.309418
2005-05-13 07:56:44 51°14.33 2°49.65 11.7176 3.433303 29.571177 16.949896
2005-05-13 07:56:48 51°14.327 2°49.646 11.717 3.441414 29.645504 16.680221
2005-05-13 07:56:54 51°14.322 2°49.64 11.7091 3.442784 29.661102 16.275708
2005-05-13 07:56:59 51°14.318 2°49.636 11.7195 3.442468 29.663118 16.343127
2005-05-13 07:57:04 51°14.314 2°49.631 11.7155 3.442468 29.663118 16.343127
2005-05-13 07:57:08 51°14.31 2°49.627 11.7163 3.440888 29.64865 16.343127
2005-05-13 07:57:14 51°14.305 2°49.622 11.7124 3.442468 29.663118 16.444255
2005-05-13 07:57:19 51°14.301 2°49.617 11.7158 3.437411 29.617325 16.612802
2005-05-13 07:57:24 51°14.296 2°49.612 11.7134 3.425297 29.50225 16.680221
2005-05-13 07:57:28 51°14.293 2°49.608 11.7135 3.438149 29.624999 16.444255
2005-05-13 07:57:34 51°14.287 2°49.602 11.7152 3.433409 29.58097 16.208289
2005-05-13 07:57:39 51°14.283 2°49.599 11.7088 3.433409 29.58097 16.208289
2005-05-13 07:57:44 51°14.279 2°49.594 11.7054 3.438992 29.636195 16.309418
2005-05-13 07:57:49 51°14.274 2°49.589 11.7093 3.428984 29.542474 16.916187
2005-05-13 07:57:54 51°14.269 2°49.584 11.7167 3.438992 29.637454 15.938614
2005-05-13 07:57:59 51°14.265 2°49.579 11.718 3.427404 29.526755 16.107161
2005-05-13 07:58:04 51°14.26 2°49.574 11.7132 3.446049 29.704908 15.972324
2005-05-13 07:58:08 51°14.256 2°49.571 11.7065 3.446049 29.704908 15.972324
2005-05-13 07:58:14 51°14.251 2°49.565 11.7076 3.444153 29.688674 16.916187
2005-05-13 07:58:19 51°14.247 2°49.56 11.7096 3.444891 29.697614 17.084734
2005-05-13 07:58:24 51°14.242 2°49.555 11.7007 3.441098 29.660735 16.646512
2005-05-13 07:58:29 51°14.237 2°49.55 11.704 3.443837 29.686914 16.74764
2005-05-13 07:58:34 51°14.233 2°49.545 11.7044 3.445312 29.701012 16.309418
2005-05-13 07:58:39 51°14.229 2°49.54 11.7091 3.445312 29.701012 16.309418
2005-05-13 07:58:44 51°14.223 2°49.534 11.7049 3.444153 29.690565 16.511674
2005-05-13 07:58:48 51°14.22 2°49.53 11.712 3.43678 29.622604 16.848768
2005-05-13 07:58:54 51°14.215 2°49.524 11.7022 3.441204 29.666781 16.983606
2005-05-13 07:58:59 51°14.211 2°49.519 11.7002 3.440782 29.663383 16.511674
2005-05-13 07:59:04 51°14.207 2°49.514 11.6959 3.440782 29.663383 16.511674
2005-05-13 07:59:08 51°14.203 2°49.509 11.7047 3.433093 29.590513 16.71393
2005-05-13 07:59:14 51°14.197 2°49.503 11.7105 3.435094 29.611527 16.545383
2005-05-13 07:59:19 51°14.193 2°49.498 11.709 3.435516 29.614296 16.545383
2005-05-13 07:59:24 51°14.188 2°49.492 11.6971 3.439624 29.652306 16.545383
2005-05-13 07:59:29 51°14.184 2°49.488 11.696 3.435199 29.610018 16.545383
2005-05-13 07:59:34 51°14.18 2°49.482 11.6988 3.437938 29.640601 16.680221
2005-05-13 07:59:39 51°14.176 2°49.477 11.7009 3.437938 29.640601 16.680221
2005-05-13 07:59:44 51°14.171 2°49.471 11.7025 3.442152 29.680256 16.848768
2005-05-13 07:59:49 51°14.167 2°49.467 11.704 3.430881 29.573142 16.781349
2005-05-13 07:59:54 51°14.163 2°49.461 11.7024 3.442784 29.68693 16.71393
2005-05-13 07:59:59 51°14.159 2°49.457 11.6986 3.43383 29.602589 17.051024
2005-05-13 08:00:04 51°14.155 2°49.451 11.7055 3.439413 29.65659 16.71393
2005-05-13 08:00:09 51°14.151 2°49.446 11.7036 3.439413 29.65659 16.71393
2005-05-13 08:00:14 51°14.147 2°49.441 11.7034 3.439413 29.65848 16.646512
2005-05-13 08:00:19 51°14.143 2°49.435 11.7047 3.439413 29.65848 16.882477
2005-05-13 08:00:24 51°14.138 2°49.429 11.709 3.436674 29.631664 17.28699
2005-05-13 08:00:29 51°14.134 2°49.424 11.7104 3.437938 29.641861 16.612802
2005-05-13 08:00:34 51°14.131 2°49.418 11.7013 3.440361 29.666285 16.848768
2005-05-13 08:00:39 51°14.127 2°49.412 11.7036 3.440361 29.666285 16.848768
2005-05-13 08:00:44 51°14.123 2°49.407 11.7088 3.437938 29.64249 16.848768
2005-05-13 08:00:48 51°14.12 2°49.402 11.7089 3.438149 29.647023 17.219571
2005-05-13 08:00:54 51°14.115 2°49.395 11.7041 3.43541 29.620209 16.74764
2005-05-13 08:00:59 51°14.111 2°49.39 11.7065 3.426035 29.530602 16.781349
2005-05-13 08:01:04 51°14.107 2°49.383 11.7044 3.437938 29.64249 16.815059
2005-05-13 08:01:08 51°14.104 2°49.379 11.7189 3.437938 29.64249 16.815059
2005-05-13 08:01:14 51°14.1 2°49.372 11.7047 3.430775 29.574019 17.152153
2005-05-13 08:01:19 51°14.096 2°49.366 11.7125 3.430249 29.570242 17.3207
2005-05-13 08:01:24 51°14.092 2°49.36 11.7201 3.423718 29.507831 17.657794
2005-05-13 08:01:28 51°14.089 2°49.355 11.7078 3.436358 29.626755 16.882477
2005-05-13 08:01:34 51°14.084 2°49.348 11.7024 3.429617 29.561689 17.28699
2005-05-13 08:01:39 51°14.081 2°49.343 11.7032 3.429617 29.561689 17.28699
2005-05-13 08:01:44 51°14.077 2°49.337 11.7062 3.437833 29.637706 17.725212
2005-05-13 08:01:49 51°14.074 2°49.331 11.7002 3.439518 29.651299 17.455537
2005-05-13 08:01:54 51°14.069 2°49.325 11.7059 3.434883 29.609513 17.017315
2005-05-13 08:01:59 51°14.066 2°49.319 11.7081 3.435621 29.613417 17.86005
2005-05-13 08:02:04 51°14.062 2°49.312 11.7122 3.43541 29.610774 17.388118
2005-05-13 08:02:08 51°14.059 2°49.308 11.7222 3.43541 29.610774 17.388118
2005-05-13 08:02:14 51°14.055 2°49.301 11.7102 3.435832 29.620462 18.365691
2005-05-13 08:02:19 51°14.051 2°49.294 11.7067 3.435937 29.623986 17.624084
2005-05-13 08:02:24 51°14.048 2°49.289 11.7074 3.43678 29.631413 17.489247
2005-05-13 08:02:28 51°14.045 2°49.284 11.7062 3.435621 29.620965 17.792631
2005-05-13 08:02:34 51°14.041 2°49.276 11.7083 3.434989 29.613665 17.86005
2005-05-13 08:02:39 51°14.038 2°49.271 11.7026 3.434989 29.613665 17.86005
2005-05-13 08:02:44 51°14.035 2°49.265 11.7022 3.436464 29.625874 17.893759
2005-05-13 08:02:48 51°14.032 2°49.26 11.7082 3.428563 29.547858 17.792631
2005-05-13 08:02:54 51°14.028 2°49.253 11.7089 3.435094 29.612156 17.994888
2005-05-13 08:02:59 51°14.025 2°49.246 11.7075 3.434884 29.6114 18.163435
2005-05-13 08:03:04 51°14.021 2°49.24 11.7095 3.434989 29.612407 18.298272
2005-05-13 08:03:09 51°14.018 2°49.234 11.7045 3.434989 29.612407 18.298272
2005-05-13 08:03:14 51°14.015 2°49.227 11.7065 3.434884 29.613287 17.792631
2005-05-13 08:03:19 51°14.012 2°49.222 11.7052 3.433725 29.603468 18.096016
2005-05-13 08:03:24 51°14.008 2°49.214 11.7047 3.431723 29.584337 18.365691
2005-05-13 08:03:29 51°14.005 2°49.208 11.7099 3.313017 28.45207 18.365691
2005-05-13 08:03:34 51°14.003 2°49.203 11.7137 3.328815 28.602942 18.298272
2005-05-13 08:03:39 51°13.999 2°49.197 11.7133 3.328815 28.602942 18.298272
2005-05-13 08:03:44 51°13.996 2°49.19 11.709 3.348932 28.793828 18.062306
2005-05-13 08:03:49 51°13.993 2°49.184 11.7154 3.410972 29.385457 18.635366
2005-05-13 08:03:54 51°13.99 2°49.177 11.7145 3.324076 28.558456 18.062306
2005-05-13 08:03:59 51°13.987 2°49.171 11.7119 3.401281 29.293559 18.365691
2005-05-13 08:04:04 51°13.984 2°49.164 11.7198 3.401281 29.293559 18.365691
2005-05-13 08:04:09 51°13.981 2°49.158 11.7116 3.390853 29.193422 18.365691
2005-05-13 08:04:14 51°13.978 2°49.152 11.711 3.40423 29.319845 18.466819
2005-05-13 08:04:18 51°13.975 2°49.147 11.7151 3.325234 28.566446 18.298272
2005-05-13 08:04:24 51°13.972 2°49.139 11.7098 3.401702 29.292604 18.534238
2005-05-13 08:04:28 51°13.969 2°49.134 11.7104 3.397805 29.255411 18.43311
2005-05-13 08:04:34 51°13.966 2°49.125 11.7067 3.375475 29.043665 18.028597
2005-05-13 08:04:40 51°13.963 2°49.118 11.7072 3.375475 29.043665 18.028597
2005-05-13 08:04:44 51°13.961 2°49.112 11.7075 3.401913 29.295858 18.129725
2005-05-13 08:04:49 51°13.958 2°49.107 11.7087 3.372315 29.012926 18.43311
2005-05-13 08:04:54 51°13.955 2°49.1 11.7114 3.400544 29.282789 18.635366
2005-05-13 08:04:59 51°13.953 2°49.094 11.7144 3.327762 28.590492 18.837623
2005-05-13 08:05:04 51°13.95 2°49.087 11.7098 3.39138 29.197827 18.567947
2005-05-13 08:05:09 51°13.947 2°49.081 11.7117 3.39138 29.197827 18.567947
2005-05-13 08:05:14 51°13.944 2°49.074 11.7122 3.371683 29.010598 18.669076
2005-05-13 08:05:19 51°13.941 2°49.068 11.7184 3.345562 28.763565 19.174717
2005-05-13 08:05:24 51°13.938 2°49.061 11.7136 3.36452 28.944176 19.107298
2005-05-13 08:05:28 51°13.936 2°49.056 11.7238 3.381163 29.10284 19.343264
2005-05-13 08:05:34 51°13.932 2°49.048 11.7136 3.376739 29.060034 18.97246
2005-05-13 08:05:39 51°13.929 2°49.042 11.7109 3.376739 29.060034 18.97246
2005-05-13 08:05:44 51°13.926 2°49.035 11.7119 3.353356 28.83596 18.97246
2005-05-13 08:05:49 51°13.923 2°49.03 11.7092 3.360623 28.90581 18.298272
2005-05-13 08:05:54 51°13.92 2°49.023 11.7082 3.378845 29.07827 19.444392
2005-05-13 08:05:59 51°13.917 2°49.017 11.7103 3.370735 29.000946 19.275845
2005-05-13 08:06:04 51°13.913 2°49.01 11.7072 3.370735 29.000946 19.275845
2005-05-13 08:06:08 51°13.911 2°49.005 11.7063 3.334608 28.655025 19.242136
2005-05-13 08:06:14 51°13.907 2°48.998 11.7201 3.339874 28.706975 19.208426
2005-05-13 08:06:19 51°13.904 2°48.992 11.7122 3.324708 28.561436 19.410683
2005-05-13 08:06:24 51°13.901 2°48.986 11.7162 3.378845 29.07827 19.309554
2005-05-13 08:06:29 51°13.898 2°48.98 11.7156 3.377476 29.06583 18.905042
2005-05-13 08:06:34 51°13.894 2°48.974 11.713 3.366732 28.964027 19.039879
2005-05-13 08:06:39 51°13.89 2°48.968 11.7143 3.366732 28.964027 19.039879
2005-05-13 08:06:44 51°13.887 2°48.962 11.7134 3.38211 29.110026 18.938751
2005-05-13 08:06:48 51°13.884 2°48.958 11.7131 3.322706 28.544825 19.107298
2005-05-13 08:06:55 51°13.88 2°48.95 11.7121 3.381268 29.101372 19.815195
2005-05-13 08:06:59 51°13.878 2°48.945 11.7118 3.377265 29.063204 19.646648
2005-05-13 08:07:03 51°13.875 2°48.94 11.7146 3.394013 29.223573 19.376973
2005-05-13 08:07:09 51°13.871 2°48.934 11.7104 3.394013 29.223573 19.376973
2005-05-13 08:07:14 51°13.868 2°48.927 11.7083 3.398437 29.265791 19.646648
2005-05-13 08:07:19 51°13.865 2°48.922 11.7093 3.34988 28.803467 19.039879
2005-05-13 08:07:24 51°13.862 2°48.915 11.715 3.325866 28.574277 19.54552
2005-05-13 08:07:28 51°13.859 2°48.911 11.7152 3.39791 29.260144 19.747777
2005-05-13 08:07:34 51°13.855 2°48.903 11.7164 3.39791 29.260144 19.747777
2005-05-13 08:07:39 51°13.852 2°48.897 11.7173 3.400228 29.28226 19.309554
2005-05-13 08:07:44 51°13.85 2°48.891 11.7142 3.388746 29.172704 19.478101
2005-05-13 08:07:49 51°13.847 2°48.886 11.7095 3.387798 29.165519 19.680358
2005-05-13 08:07:54 51°13.844 2°48.88 11.7134 3.377581 29.068069 19.54552
2005-05-13 08:07:59 51°13.841 2°48.874 11.7106 3.377055 29.06243 19.242136
2005-05-13 08:08:04 51°13.838 2°48.867 11.7145 3.388641 29.171699 19.747777
2005-05-13 08:08:09 51°13.836 2°48.861 11.7111 3.388641 29.171699 19.747777
2005-05-13 08:08:14 51°13.833 2°48.854 11.7123 3.357042 28.869238 20.017452
2005-05-13 08:08:18 51°13.831 2°48.85 11.7134 3.317546 28.49211 19.646648
2005-05-13 08:08:24 51°13.828 2°48.842 11.7126 3.375264 29.04289 19.714067
2005-05-13 08:08:28 51°13.826 2°48.837 11.7194 3.391274 29.197442 19.916324
2005-05-13 08:08:34 51°13.823 2°48.829 11.7249 3.347879 28.783798 19.410683
2005-05-13 08:08:39 51°13.821 2°48.823 11.7218 3.347879 28.783798 19.410683
2005-05-13 08:08:43 51°13.819 2°48.818 11.7163 3.39159 29.199836 20.084871
2005-05-13 08:08:49 51°13.816 2°48.81 11.7126 3.384744 29.133905 20.556802
2005-05-13 08:08:54 51°13.814 2°48.803 11.7102 3.387061 29.155389 20.11858
2005-05-13 08:08:59 51°13.812 2°48.797 11.7163 3.382005 29.107168 20.253418
2005-05-13 08:09:04 51°13.81 2°48.79 11.717 3.3819 29.103691 20.320836
2005-05-13 08:09:08 51°13.808 2°48.785 11.7155 3.3819 29.103691 20.320836
2005-05-13 08:09:14 51°13.807 2°48.777 11.7199 3.382321 29.107709 20.017452
2005-05-13 08:09:19 51°13.805 2°48.771 11.7225 3.380425 29.08963 19.444392
2005-05-13 08:09:23 51°13.804 2°48.766 11.7187 3.395066 29.23052 20.590512
2005-05-13 08:09:28 51°13.803 2°48.759 11.7184 3.363046 28.927051 20.017452
2005-05-13 08:09:34 51°13.8 2°48.752 11.7202 3.363046 28.927051 20.017452
2005-05-13 08:09:39 51°13.799 2°48.745 11.722 3.288267 28.214479 19.983742
2005-05-13 08:09:44 51°13.798 2°48.738 11.7201 3.39633 29.243823 19.714067
2005-05-13 08:09:49 51°13.797 2°48.732 11.716 3.357147 28.868402 20.455674
2005-05-13 08:09:54 51°13.795 2°48.726 11.7191 3.35483 28.843882 20.388255
2005-05-13 08:09:59 51°13.794 2°48.719 11.7157 3.383585 29.117289 20.152289
2005-05-13 08:10:03 51°13.794 2°48.714 11.7103 3.394434 29.221387 20.759059
2005-05-13 08:10:09 51°13.792 2°48.707 11.7172 3.394434 29.221387 20.759059
2005-05-13 08:10:14 51°13.791 2°48.7 11.7157 3.38506 29.131351 20.219708
2005-05-13 08:10:19 51°13.791 2°48.695 11.7192 3.362414 28.916117 20.69164
2005-05-13 08:10:24 51°13.79 2°48.688 11.7226 3.35146 28.811173 20.388255
2005-05-13 08:10:29 51°13.789 2°48.683 11.72 3.31091 28.426612 20.523093
2005-05-13 08:10:34 51°13.788 2°48.676 11.7169 3.363572 28.928998 20.320836
2005-05-13 08:10:39 51°13.787 2°48.671 11.7138 3.363572 28.928998 20.320836
2005-05-13 08:10:44 51°13.787 2°48.664 11.7189 3.35641 28.862605 20.65793
2005-05-13 08:10:49 51°13.786 2°48.659 11.7185 3.383058 29.115358 20.489383
2005-05-13 08:10:55 51°13.785 2°48.651 11.7143 3.386324 29.146499 20.725349
2005-05-13 08:10:59 51°13.785 2°48.647 11.7116 3.368417 28.973937 20.860187
2005-05-13 08:11:04 51°13.784 2°48.641 11.711 3.35641 28.860154 21.028734
2005-05-13 08:11:08 51°13.783 2°48.636 11.7135 3.35641 28.860154 21.028734
2005-05-13 08:11:14 51°13.783 2°48.629 11.7125 3.361571 28.910545 21.298409
2005-05-13 08:11:19 51°13.782 2°48.623 11.716 3.365784 28.951303 21.534375
2005-05-13 08:11:24 51°13.782 2°48.618 11.7144 3.378529 29.072787 21.669212
2005-05-13 08:11:29 51°13.781 2°48.612 11.7139 3.366416 28.95794 20.759059
2005-05-13 08:11:35 51°13.781 2°48.605 11.7151 3.319968 28.517568 21.433247
2005-05-13 08:11:39 51°13.78 2°48.6 11.714 3.319968 28.517568 21.433247
2005-05-13 08:11:44 51°13.78 2°48.594 11.7201 3.267099 28.015325 21.197281
2005-05-13 08:11:49 51°13.779 2°48.588 11.7211 3.3483 28.785976 20.961315
2005-05-13 08:11:54 51°13.779 2°48.582 11.7166 3.358306 28.883118 21.466956
2005-05-13 08:11:59 51°13.779 2°48.575 11.7148 3.369576 28.990518 21.163571
2005-05-13 08:12:04 51°13.779 2°48.57 11.7114 3.360413 28.901961 20.489383
2005-05-13 08:12:09 51°13.779 2°48.564 11.7116 3.360413 28.901961 20.489383
2005-05-13 08:12:14 51°13.779 2°48.558 11.7288 3.279737 28.134675 21.096153
2005-05-13 08:12:19 51°13.779 2°48.553 11.7134 3.30912 28.413212 20.455674
2005-05-13 08:12:24 51°13.779 2°48.546 11.712 3.35799 28.877042 20.826477
2005-05-13 08:12:29 51°13.779 2°48.54 11.7204 3.324181 28.555821 20.826477
2005-05-13 08:12:34 51°13.779 2°48.535 11.7259 3.376001 29.050536 21.129862
2005-05-13 08:12:39 51°13.779 2°48.53 11.7241 3.376001 29.050536 21.129862
2005-05-13 08:12:44 51°13.779 2°48.524 11.7174 3.40107 29.289682 20.69164
2005-05-13 08:12:49 51°13.78 2°48.519 11.71 3.388325 29.167446 20.152289
2005-05-13 08:12:54 51°13.781 2°48.513 11.7079 3.390221 29.184913 20.354546
2005-05-13 08:12:59 51°13.781 2°48.508 11.7114 3.381794 29.105159 20.590512
2005-05-13 08:13:04 51°13.782 2°48.501 11.7151 3.286582 28.198477 20.590512
2005-05-13 08:13:08 51°13.783 2°48.496 11.7111 3.286582 28.198477 20.590512
2005-05-13 08:13:14 51°13.785 2°48.488 11.7123 3.358833 28.885682 20.388255
2005-05-13 08:13:19 51°13.787 2°48.481 11.7105 3.335872 28.666444 20.388255
2005-05-13 08:13:24 51°13.789 2°48.473 11.7104 3.364942 28.945732 19.815195
2005-05-13 08:13:28 51°13.791 2°48.467 11.7065 3.388957 29.175953 20.421965
2005-05-13 08:13:34 51°13.794 2°48.458 11.7068 3.337136 28.682735 19.781486
2005-05-13 08:13:39 51°13.796 2°48.451 11.7087 3.337136 28.682735 19.781486
2005-05-13 08:13:44 51°13.799 2°48.442 11.7158 3.364836 28.945343 20.185999
2005-05-13 08:13:48 51°13.801 2°48.435 11.7107 3.393802 29.223424 19.781486
2005-05-13 08:13:54 51°13.804 2°48.426 11.7079 3.260675 27.956159 20.051161
2005-05-13 08:13:59 51°13.808 2°48.417 11.7154 3.301011 28.340951 19.950033
2005-05-13 08:14:04 51°13.811 2°48.407 11.705 3.380004 29.093025 20.590512
2005-05-13 08:14:08 51°13.814 2°48.4 11.7107 3.380004 29.093025 20.590512
2005-05-13 08:14:14 51°13.818 2°48.39 11.7102 3.336398 28.678153 20.354546
2005-05-13 08:14:19 51°13.821 2°48.382 11.7112 3.349143 28.79828 20.388255
2005-05-13 08:14:24 51°13.825 2°48.373 11.7055 3.360097 28.902019 20.185999
2005-05-13 08:14:29 51°13.828 2°48.365 11.709 3.383164 29.121928 19.916324
2005-05-13 08:14:34 51°13.832 2°48.355 11.7078 3.322074 28.538208 20.051161
2005-05-13 08:14:39 51°13.835 2°48.347 11.7089 3.322074 28.538208 20.051161
2005-05-13 08:14:44 51°13.839 2°48.338 11.7092 3.36589 28.956611 19.376973
2005-05-13 08:14:49 51°13.843 2°48.329 11.7105 3.34651 28.770759 20.421965
2005-05-13 08:14:54 51°13.847 2°48.32 11.7133 3.394224 29.225583 19.714067
2005-05-13 08:14:59 51°13.851 2°48.313 11.7139 3.386956 29.158099 20.219708
2005-05-13 08:15:04 51°13.854 2°48.305 11.7144 3.386956 29.158099 20.219708
2005-05-13 08:15:09 51°13.858 2°48.296 11.7163 3.333765 28.650656 20.185999
2005-05-13 08:15:14 51°13.863 2°48.286 11.709 3.313438 28.459097 20.69164
2005-05-13 08:15:19 51°13.866 2°48.278 11.7072 3.354093 28.845433 19.680358
2005-05-13 08:15:24 51°13.87 2°48.271 11.7088 3.25541 27.907398 20.017452
2005-05-13 08:15:29 51°13.874 2°48.261 11.7053 3.281738 28.156661 20.017452
2005-05-13 08:15:34 51°13.878 2°48.254 11.7067 3.388957 29.175333 19.747777
2005-05-13 08:15:39 51°13.882 2°48.246 11.7124 3.388957 29.175333 19.747777
2005-05-13 08:15:44 51°13.887 2°48.238 11.7096 3.338715 28.697165 19.714067
2005-05-13 08:15:49 51°13.891 2°48.231 11.7077 3.319231 28.512372 19.073589
2005-05-13 08:15:54 51°13.895 2°48.222 11.7049 3.371788 29.015299 19.646648
2005-05-13 08:15:59 51°13.899 2°48.215 11.7038 3.363362 28.936206 19.714067
2005-05-13 08:16:04 51°13.904 2°48.207 11.7054 3.347352 28.784284 19.680358
2005-05-13 08:16:09 51°13.908 2°48.199 11.7058 3.347352 28.784284 19.680358
2005-05-13 08:16:14 51°13.913 2°48.192 11.7007 3.34335 28.745556 20.017452
2005-05-13 08:16:19 51°13.917 2°48.185 11.6995 3.385797 29.148284 19.376973
2005-05-13 08:16:24 51°13.921 2°48.178 11.6985 3.388957 29.179051 18.938751
2005-05-13 08:16:28 51°13.923 2°48.172 11.7009 3.343139 28.743551 19.54552
2005-05-13 08:16:34 51°13.927 2°48.165 11.7037 3.343139 28.743551 19.54552
2005-05-13 08:16:39 51°13.93 2°48.159 11.7022 3.374 29.039473 19.646648
2005-05-13 08:16:44 51°13.932 2°48.152 11.696 3.353672 28.845708 19.174717
2005-05-13 08:16:48 51°13.934 2°48.147 11.6987 3.340927 28.72432 19.680358
2005-05-13 08:16:54 51°13.936 2°48.141 11.6965 3.333028 28.65094 19.376973
2005-05-13 08:16:59 51°13.938 2°48.134 11.6985 3.376633 29.067672 19.950033
2005-05-13 08:17:04 51°13.94 2°48.128 11.6976 3.372842 29.032125 19.680358
2005-05-13 08:17:09 51°13.941 2°48.123 11.6924 3.372842 29.032125 19.680358
2005-05-13 08:17:14 51°13.943 2°48.117 11.6942 3.36431 28.95139 19.275845
2005-05-13 08:17:19 51°13.944 2°48.112 11.6963 3.242562 27.795017 19.781486
2005-05-13 08:17:24 51°13.945 2°48.106 11.6951 3.287004 28.217452 19.781486
2005-05-13 08:17:29 51°13.946 2°48.102 11.6939 3.368734 28.995416 19.511811
2005-05-13 08:17:34 51°13.947 2°48.096 11.6924 3.379688 29.100519 19.781486
2005-05-13 08:17:39 51°13.948 2°48.091 11.6929 3.379688 29.100519 19.781486
2005-05-13 08:17:44 51°13.948 2°48.086 11.691 3.378213 29.087068 19.54552
2005-05-13 08:17:48 51°13.949 2°48.081 11.6922 3.246143 27.830154 19.444392
2005-05-13 08:17:54 51°13.95 2°48.075 11.6903 3.382743 29.129045 19.275845
2005-05-13 08:17:59 51°13.95 2°48.07 11.6918 3.363467 28.945202 19.646648
2005-05-13 08:18:04 51°13.951 2°48.065 11.6904 3.382637 29.129278 19.848905
2005-05-13 08:18:08 51°13.951 2°48.062 11.6883 3.382637 29.129278 19.848905
2005-05-13 08:18:14 51°13.952 2°48.056 11.691 3.384112 29.144588 19.848905
2005-05-13 08:18:19 51°13.952 2°48.052 11.6859 3.378424 29.091551 19.680358
2005-05-13 08:18:24 51°13.952 2°48.046 11.6888 3.335661 28.685146 19.680358
2005-05-13 08:18:29 51°13.952 2°48.042 11.6946 3.347352 28.796516 19.54552
2005-05-13 08:18:34 51°13.952 2°48.037 11.6874 3.322496 28.561015 19.747777
2005-05-13 08:18:39 51°13.952 2°48.032 11.6845 3.322496 28.561015 19.747777
2005-05-13 08:18:44 51°13.952 2°48.026 11.6868 3.344509 28.770032 20.017452
2005-05-13 08:18:49 51°13.952 2°48.022 11.6914 3.342086 28.748174 19.612939
2005-05-13 08:18:54 51°13.951 2°48.017 11.6894 3.378635 29.097271 19.781486
2005-05-13 08:18:59 51°13.951 2°48.013 11.6859 3.350723 28.829859 19.815195
2005-05-13 08:19:04 51°13.95 2°48.008 11.684 3.245721 27.830887 19.714067
2005-05-13 08:19:08 51°13.95 2°48.004 11.6924 3.245721 27.830887 19.714067
2005-05-13 08:19:14 51°13.949 2°47.999 11.6908 3.34809 28.805377 19.444392
2005-05-13 08:19:19 51°13.948 2°47.994 11.6878 3.348827 28.813628 19.343264
2005-05-13 08:19:24 51°13.947 2°47.989 11.6875 3.244037 27.817268 19.781486
2005-05-13 08:19:28 51°13.947 2°47.986 11.6838 3.367154 28.988358 19.444392
2005-05-13 08:19:34 51°13.946 2°47.979 11.6888 3.379372 29.104925 19.54552
2005-05-13 08:19:39 51°13.945 2°47.975 11.6887 3.379372 29.104925 19.54552
2005-05-13 08:19:44 51°13.944 2°47.97 11.6838 3.340401 28.733341 19.714067
2005-05-13 08:19:48 51°13.944 2°47.966 11.6817 3.360202 28.922064 19.343264
2005-05-13 08:19:54 51°13.943 2°47.961 11.68 3.360413 28.924072 19.848905
2005-05-13 08:19:59 51°13.941 2°47.957 11.6833 3.389168 29.199047 19.882614
2005-05-13 08:20:04 51°13.941 2°47.953 11.6797 3.378424 29.096497 18.938751
2005-05-13 08:20:09 51°13.94 2°47.947 11.6783 3.378424 29.096497 18.938751
2005-05-13 08:20:14 51°13.938 2°47.943 11.678 3.351881 28.844578 19.612939
2005-05-13 08:20:19 51°13.938 2°47.939 11.6819 3.385692 29.166484 19.747777
2005-05-13 08:20:24 51°13.936 2°47.934 11.6839 3.384955 29.160065 20.287127
2005-05-13 08:20:28 51°13.935 2°47.931 11.687 3.365363 28.974359 19.646648
2005-05-13 08:20:34 51°13.934 2°47.925 11.6803 3.319126 28.533787 20.051161
2005-05-13 08:20:39 51°13.933 2°47.921 11.6873 3.319126 28.533787 20.051161
2005-05-13 08:20:44 51°13.931 2°47.916 11.6839 3.386851 29.181887 20.388255
2005-05-13 08:20:48 51°13.93 2°47.912 11.6824 3.349143 28.820927 20.556802
2005-05-13 08:20:54 51°13.929 2°47.906 11.6794 3.375791 29.075696 20.253418
2005-05-13 08:20:59 51°13.928 2°47.902 11.6784 3.390537 29.215847 20.388255
2005-05-13 08:21:04 51°13.927 2°47.898 11.6876 3.391169 29.22064 20.893896
2005-05-13 08:21:09 51°13.926 2°47.893 11.6846 3.391169 29.22064 20.893896
2005-05-13 08:21:14 51°13.925 2°47.887 11.6803 3.344614 28.776538 20.421965
2005-05-13 08:21:19 51°13.924 2°47.883 11.6788 3.35936 28.917102 20.961315
2005-05-13 08:21:24 51°13.923 2°47.878 11.6833 3.352935 28.855845 20.185999
2005-05-13 08:21:28 51°13.923 2°47.874 11.6872 3.342402 28.756073 20.152289
2005-05-13 08:21:34 51°13.922 2°47.867 11.6834 3.351987 28.846808 20.455674
2005-05-13 08:21:39 51°13.921 2°47.863 11.6805 3.351987 28.846808 20.455674
2005-05-13 08:21:44 51°13.921 2°47.857 11.6818 3.354936 28.874923 20.489383
2005-05-13 08:21:48 51°13.921 2°47.853 11.6848 3.393381 29.241763 20.556802
2005-05-13 08:21:54 51°13.921 2°47.847 11.6819 3.395804 29.265523 20.287127
2005-05-13 08:21:59 51°13.921 2°47.841 11.6829 3.33345 28.671393 20.253418
2005-05-13 08:22:04 51°13.922 2°47.837 11.6849 3.370419 29.021353 20.320836
2005-05-13 08:22:08 51°13.922 2°47.833 11.6851 3.370419 29.021353 20.320836
2005-05-13 08:22:14 51°13.923 2°47.827 11.682 3.353672 28.861647 20.489383
2005-05-13 08:22:19 51°13.924 2°47.823 11.6842 3.376634 29.080646 20.624221
2005-05-13 08:22:24 51°13.925 2°47.818 11.6805 3.364731 28.9671 20.287127
2005-05-13 08:22:28 51°13.925 2°47.814 11.6807 3.388536 29.194255 20.354546
2005-05-13 08:22:34 51°13.927 2°47.81 11.6798 3.297535 28.326567 20.65793
2005-05-13 08:22:39 51°13.928 2°47.806 11.6808 3.297535 28.326567 20.65793
2005-05-13 08:22:44 51°13.93 2°47.802 11.6818 3.352724 28.851997 19.950033
2005-05-13 08:22:48 51°13.931 2°47.799 11.6818 3.365153 28.972349 19.916324
2005-05-13 08:22:54 51°13.933 2°47.795 11.6801 3.343455 28.765498 20.354546
2005-05-13 08:22:59 51°13.935 2°47.792 11.6823 3.361256 28.935796 19.747777
2005-05-13 08:23:04 51°13.936 2°47.789 11.6829 3.340085 28.734606 19.983742
2005-05-13 08:23:08 51°13.938 2°47.788 11.6778 3.340085 28.734606 19.983742
2005-05-13 08:23:14 51°13.94 2°47.785 11.6823 3.264151 28.012323 19.781486
2005-05-13 08:23:19 51°13.942 2°47.784 11.6803 3.363994 28.96253 19.444392
2005-05-13 08:23:24 51°13.944 2°47.782 11.6811 3.35778 28.90388 19.444392
2005-05-13 08:23:28 51°13.945 2°47.782 11.6815 3.290374 28.260881 19.275845
2005-05-13 08:23:34 51°13.947 2°47.781 11.6775 3.339137 28.725574 19.444392
2005-05-13 08:23:39 51°13.948 2°47.78 11.6785 3.339137 28.725574 19.444392
2005-05-13 08:23:44 51°13.949 2°47.779 11.6791 3.362204 28.945452 18.264563
2005-05-13 08:23:49 51°13.95 2°47.778 11.6796 3.303328 28.385274 19.208426
2005-05-13 08:23:54 51°13.951 2°47.777 11.683 3.381374 29.130216 19.107298
2005-05-13 08:23:59 51°13.951 2°47.776 11.6801 3.382006 29.135629 19.478101
2005-05-13 08:24:04 51°13.952 2°47.775 11.6815 3.363152 28.955109 18.938751
2005-05-13 08:24:08 51°13.952 2°47.773 11.6856 3.363152 28.955109 18.938751
2005-05-13 08:24:14 51°13.952 2°47.772 11.6814 3.373158 29.051185 18.500529
2005-05-13 08:24:19 51°13.952 2°47.771 11.681 3.369577 29.017015 18.298272
2005-05-13 08:24:24 51°13.952 2°47.769 11.6859 3.385692 29.171444 19.511811
2005-05-13 08:24:29 51°13.952 2°47.766 11.6859 3.351039 28.840224 19.275845
2005-05-13 08:24:34 51°13.952 2°47.764 11.6887 3.379794 29.114515 19.141007
2005-05-13 08:24:39 51°13.952 2°47.763 11.6842 3.379794 29.114515 19.141007
2005-05-13 08:24:44 51°13.952 2°47.761 11.6839 3.357148 28.897854 19.57923
2005-05-13 08:24:48 51°13.952 2°47.759 11.6877 3.343034 28.763929 19.680358
2005-05-13 08:24:54 51°13.951 2°47.757 11.6866 3.332818 28.665983 19.848905
2005-05-13 08:24:59 51°13.951 2°47.755 11.6868 3.384217 29.154886 19.680358
2005-05-13 08:25:04 51°13.95 2°47.753 11.6871 3.343666 28.767505 19.612939
2005-05-13 08:25:08 51°13.95 2°47.752 11.6858 3.343666 28.767505 19.612939
2005-05-13 08:25:14 51°13.95 2°47.749 11.6909 3.382111 29.134157 20.152289
2005-05-13 08:25:19 51°13.949 2°47.747 11.6921 3.328289 28.621025 19.680358
2005-05-13 08:25:24 51°13.948 2°47.745 11.6899 3.372526 29.042685 19.612939
2005-05-13 08:25:29 51°13.948 2°47.742 11.6881 3.37874 29.101368 19.646648
2005-05-13 08:25:34 51°13.947 2°47.741 11.6894 3.368734 29.005893 19.781486
2005-05-13 08:25:39 51°13.946 2°47.738 11.6869 3.368734 29.005893 19.781486
2005-05-13 08:25:44 51°13.945 2°47.735 11.6909 3.345246 28.781949 19.916324
2005-05-13 08:25:48 51°13.944 2°47.733 11.6898 3.380636 29.119463 19.714067
2005-05-13 08:25:54 51°13.943 2°47.73 11.69 3.367786 28.995002 20.084871
2005-05-13 08:25:59 51°13.942 2°47.727 11.6891 3.37558 29.068124 19.444392
2005-05-13 08:26:04 51°13.941 2°47.724 11.6929 3.373158 29.044394 19.511811
2005-05-13 08:26:08 51°13.94 2°47.722 11.6912 3.373158 29.044394 19.511811
2005-05-13 08:26:14 51°13.938 2°47.718 11.693 3.356094 28.881672 20.320836
2005-05-13 08:26:19 51°13.937 2°47.715 11.6981 3.376634 29.078174 20.185999
2005-05-13 08:26:23 51°13.936 2°47.713 11.6942 3.362414 28.94254 19.478101
2005-05-13 08:26:29 51°13.934 2°47.709 11.693 3.358306 28.903373 19.882614
2005-05-13 08:26:34 51°13.933 2°47.705 11.6942 3.33029 28.635822 19.882614
2005-05-13 08:26:39 51°13.931 2°47.703 11.6917 3.33029 28.635822 19.882614
2005-05-13 08:26:43 51°13.929 2°47.7 11.6891 3.381057 29.119771 19.646648
2005-05-13 08:26:48 51°13.928 2°47.697 11.6904 3.368628 29.000574 20.11858
2005-05-13 08:26:54 51°13.926 2°47.692 11.6911 3.363467 28.951968 19.208426
2005-05-13 08:26:59 51°13.924 2°47.69 11.6907 3.338926 28.716243 20.253418
2005-05-13 08:27:04 51°13.923 2°47.686 11.6914 3.37242 29.036743 19.848905
2005-05-13 08:27:08 51°13.921 2°47.683 11.6918 3.37242 29.036743 19.848905
2005-05-13 08:27:14 51°13.919 2°47.679 11.6917 3.3384 28.711227 19.141007
2005-05-13 08:27:19 51°13.918 2°47.676 11.694 3.379583 29.104461 19.714067
2005-05-13 08:27:24 51°13.916 2°47.672 11.6951 3.376634 29.076938 19.646648
2005-05-13 08:27:29 51°13.914 2°47.669 11.6932 3.233506 27.71563 19.781486
2005-05-13 08:27:34 51°13.912 2°47.665 11.6935 3.233506 27.71563 19.781486
2005-05-13 08:27:39 51°13.911 2°47.661 11.6966 3.364099 28.95861 19.815195
2005-05-13 08:27:43 51°13.908 2°47.658 11.6934 3.391064 29.216529 19.107298
2005-05-13 08:27:49 51°13.906 2°47.654 11.6944 3.381163 29.120157 19.714067
2005-05-13 08:27:54 51°13.905 2°47.65 11.6922 3.319336 28.530942 19.848905
2005-05-13 08:27:59 51°13.903 2°47.647 11.6934 3.369787 29.011008 20.556802
2005-05-13 08:28:04 51°13.901 2°47.643 11.6943 3.344719 28.771427 20.826477
2005-05-13 08:28:08 51°13.899 2°47.64 11.6952 3.344719 28.771427 20.826477
2005-05-13 08:28:14 51°13.897 2°47.636 11.6938 3.32692 28.602516 20.421965
2005-05-13 08:28:19 51°13.896 2°47.633 11.6924 3.344298 28.768025 21.399537
2005-05-13 08:28:24 51°13.893 2°47.629 11.6936 3.374211 29.051973 20.792768
2005-05-13 08:28:29 51°13.892 2°47.626 11.6944 3.376423 29.073693 20.489383
2005-05-13 08:28:34 51°13.89 2°47.622 11.6932 3.352935 28.849713 20.860187
2005-05-13 08:28:39 51°13.888 2°47.619 11.6932 3.352935 28.849713 20.860187
2005-05-13 08:28:44 51°13.886 2°47.617 11.6921 3.379583 29.103843 20.826477
2005-05-13 08:28:48 51°13.884 2°47.616 11.6946 3.36431 28.958773 20.556802
2005-05-13 08:28:54 51°13.881 2°47.615 11.6917 3.357148 28.891099 20.017452
2005-05-13 08:28:59 51°13.878 2°47.615 11.6927 3.374948 29.060859 20.017452
2005-05-13 08:29:03 51°13.876 2°47.615 11.6927 3.351039 28.83287 20.725349
2005-05-13 08:29:09 51°13.873 2°47.616 11.6915 3.351039 28.83287 20.725349
2005-05-13 08:29:14 51°13.872 2°47.617 11.6913 3.361361 28.931881 20.759059
2005-05-13 08:29:19 51°13.87 2°47.618 11.6925 3.357569 28.896344 20.590512
2005-05-13 08:29:24 51°13.867 2°47.62 11.6918 3.310174 28.44436 20.219708
2005-05-13 08:29:28 51°13.867 2°47.621 11.6952 3.342086 28.748785 20.455674
2005-05-13 08:29:34 51°13.864 2°47.623 11.6923 3.374 29.053668 20.11858
2005-05-13 08:29:39 51°13.863 2°47.624 11.6915 3.374 29.053668 20.11858
2005-05-13 08:29:44 51°13.862 2°47.626 11.6894 3.375054 29.061864 20.084871
2005-05-13 08:29:49 51°13.861 2°47.628 11.6915 3.319652 28.535768 20.826477
2005-05-13 08:29:54 51°13.86 2°47.629 11.6928 3.376423 29.076782 20.388255
2005-05-13 08:29:59 51°13.86 2°47.63 11.6922 3.2909 28.262283 20.084871
2005-05-13 08:30:04 51°13.859 2°47.633 11.6925 3.373158 29.045011 20.489383
2005-05-13 08:30:09 51°13.859 2°47.634 11.6904 3.373158 29.045011 20.489383
2005-05-13 08:30:14 51°13.86 2°47.637 11.6888 3.34809 28.805989 20.624221
2005-05-13 08:30:19 51°13.861 2°47.639 11.6911 3.355147 28.873863 21.096153
2005-05-13 08:30:24 51°13.863 2°47.64 11.6883 3.34672 28.794165 20.320836
2005-05-13 08:30:28 51°13.864 2°47.64 11.6903 3.357358 28.893721 21.23099
2005-05-13 08:30:34 51°13.866 2°47.641 11.6876 3.347247 28.79796 19.983742
2005-05-13 08:30:39 51°13.868 2°47.64 11.6859 3.347247 28.79796 19.983742
2005-05-13 08:30:44 51°13.869 2°47.639 11.6842 3.367575 28.991144 20.185999
2005-05-13 08:30:49 51°13.872 2°47.637 11.6838 3.378951 29.100904 20.556802
2005-05-13 08:30:54 51°13.873 2°47.635 11.6845 3.358622 28.908228 19.983742
2005-05-13 08:30:59 51°13.875 2°47.633 11.6821 3.357885 28.901199 20.084871
2005-05-13 08:31:04 51°13.876 2°47.631 11.6839 3.375054 29.06557 19.848905
2005-05-13 08:31:09 51°13.878 2°47.628 11.6855 3.375054 29.06557 19.848905
2005-05-13 08:31:14 51°13.879 2°47.624 11.6902 3.385692 29.167104 20.455674
2005-05-13 08:31:19 51°13.88 2°47.622 11.6846 3.350196 28.830353 20.523093
2005-05-13 08:31:24 51°13.881 2°47.618 11.6837 3.353883 28.865495 20.421965
2005-05-13 08:31:28 51°13.882 2°47.615 11.6857 3.336083 28.695865 20.152289
2005-05-13 08:31:35 51°13.882 2°47.61 11.689 3.384217 29.154266 19.882614
2005-05-13 08:31:39 51°13.883 2°47.606 11.6853 3.384217 29.154266 19.882614
2005-05-13 08:31:44 51°13.884 2°47.602 11.6874 3.314386 28.488074 20.11858
2005-05-13 08:31:49 51°13.884 2°47.598 11.6864 3.36905 29.008907 19.882614
2005-05-13 08:31:54 51°13.885 2°47.595 11.6862 3.396225 29.269547 20.152289
2005-05-13 08:31:59 51°13.886 2°47.592 11.695 3.327657 28.615615 20.523093
2005-05-13 08:32:04 51°13.887 2°47.588 11.6874 3.379899 29.112426 20.287127
2005-05-13 08:32:08 51°13.888 2°47.585 11.6873 3.379899 29.112426 20.287127
2005-05-13 08:32:14 51°13.89 2°47.582 11.687 3.322812 28.567057 20.523093
2005-05-13 08:32:19 51°13.892 2°47.58 11.6861 3.336293 28.696652 20.995024
2005-05-13 08:32:24 51°13.895 2°47.578 11.6873 3.389273 29.201915 20.051161
2005-05-13 08:32:28 51°13.897 2°47.578 11.6899 3.340296 28.733559 20.759059
2005-05-13 08:32:34 51°13.9 2°47.577 11.6902 3.333028 28.663725 20.590512
2005-05-13 08:32:39 51°13.903 2°47.577 11.6869 3.333028 28.663725 20.590512
2005-05-13 08:32:44 51°13.905 2°47.577 11.6864 3.3384 28.715498 20.320836
2005-05-13 08:32:48 51°13.908 2°47.577 11.6858 3.30891 28.435357 20.65793
2005-05-13 08:32:54 51°13.912 2°47.579 11.6876 3.388431 29.192629 20.624221
2005-05-13 08:32:59 51°13.916 2°47.58 11.6885 3.380741 29.118612 20.152289
2005-05-13 08:33:04 51°13.92 2°47.582 11.6922 3.362203 28.941761 19.714067
2005-05-13 08:33:09 51°13.924 2°47.585 11.6905 3.362203 28.941761 19.714067
2005-05-13 08:33:14 51°13.929 2°47.589 11.6917 3.392012 29.227444 20.354546
2005-05-13 08:33:19 51°13.933 2°47.592 11.6918 3.253409 27.908566 20.489383
2005-05-13 08:33:23 51°13.936 2°47.596 11.6917 3.328078 28.619019 20.11858
2005-05-13 08:33:29 51°13.942 2°47.602 11.6928 3.385903 29.169115 20.455674
2005-05-13 08:33:34 51°13.947 2°47.607 11.6913 3.368313 29.000641 20.523093
2005-05-13 08:33:39 51°13.951 2°47.612 11.6947 3.368313 29.000641 20.523093
2005-05-13 08:33:44 51°13.955 2°47.618 11.6937 3.342718 28.755417 20.893896
2005-05-13 08:33:49 51°13.96 2°47.624 11.6942 3.386113 29.169266 20.725349
2005-05-13 08:33:54 51°13.965 2°47.63 11.6929 3.381795 29.127426 20.995024
2005-05-13 08:33:59 51°13.969 2°47.635 11.6982 3.335767 28.689197 20.759059
2005-05-13 08:34:04 51°13.974 2°47.643 11.6958 3.313228 28.474023 20.421965
2005-05-13 08:34:09 51°13.978 2°47.648 11.6935 3.313228 28.474023 20.421965
2005-05-13 08:34:14 51°13.982 2°47.655 11.6945 3.37379 29.050423 20.927606
2005-05-13 08:34:19 51°13.986 2°47.661 11.6914 3.343245 28.759212 20.995024
2005-05-13 08:34:23 51°13.989 2°47.665 11.695 3.229399 27.676696 20.927606
2005-05-13 08:34:28 51°13.992 2°47.67 11.6911 3.285108 28.205432 20.961315
2005-05-13 08:34:34 51°13.997 2°47.679 11.6927 3.349459 28.816589 21.062443
2005-05-13 08:34:39 51°14 2°47.684 11.6924 3.349459 28.816589 21.062443
2005-05-13 08:34:44 51°14.003 2°47.691 11.6862 3.363257 28.948729 21.096153
2005-05-13 08:34:48 51°14.005 2°47.695 11.688 3.376212 29.072301 20.725349
2005-05-13 08:34:54 51°14.009 2°47.702 11.6847 3.384323 29.150315 21.129862
2005-05-13 08:34:59 51°14.011 2°47.708 11.6836 3.390221 29.206621 21.062443
2005-05-13 08:35:04 51°14.014 2°47.713 11.6932 3.367575 28.991144 20.320836
2005-05-13 08:35:09 51°14.016 2°47.72 11.687 3.367575 28.991144 20.320836
2005-05-13 08:35:14 51°14.019 2°47.726 11.6823 3.36747 28.990755 20.084871
2005-05-13 08:35:19 51°14.022 2°47.73 11.6819 3.359149 28.912021 21.028734
2005-05-13 08:35:24 51°14.024 2°47.736 11.6816 3.33998 28.729938 21.129862
2005-05-13 08:35:28 51°14.026 2°47.74 11.68 3.39138 29.222652 20.792768
2005-05-13 08:35:35 51°14.03 2°47.745 11.6823 3.36115 28.933562 21.129862
2005-05-13 08:35:39 51°14.032 2°47.75 11.6823 3.36115 28.933562 21.129862
2005-05-13 08:35:44 51°14.036 2°47.754 11.6841 3.333134 28.666556 21.062443
2005-05-13 08:35:49 51°14.038 2°47.758 11.6823 3.345457 28.784568 20.725349
2005-05-13 08:35:54 51°14.041 2°47.762 11.6897 3.348932 28.818306 20.624221
2005-05-13 08:35:59 51°14.044 2°47.765 11.6854 3.37558 29.074303 21.028734
2005-05-13 08:36:04 51°14.047 2°47.769 11.6814 3.384007 29.155354 21.062443
2005-05-13 08:36:09 51°14.05 2°47.773 11.6827 3.384007 29.155354 21.062443
2005-05-13 08:36:14 51°14.053 2°47.777 11.6879 3.366733 28.9905 20.927606
2005-05-13 08:36:19 51°14.055 2°47.781 11.6891 3.352408 28.853891 20.152289
2005-05-13 08:36:24 51°14.058 2°47.787 11.6941 3.379478 29.112118 20.489383
2005-05-13 08:36:29 51°14.06 2°47.791 11.6902 3.360308 28.927986 20.11858
2005-05-13 08:36:34 51°14.061 2°47.797 11.6933 3.384323 29.155892 20.455674
2005-05-13 08:36:39 51°14.062 2°47.803 11.6932 3.384323 29.155892 20.455674
2005-05-13 08:36:44 51°14.062 2°47.81 11.6889 3.376528 29.081496 21.534375
2005-05-13 08:36:49 51°14.063 2°47.815 11.6856 3.359992 28.923128 19.916324
2005-05-13 08:36:53 51°14.062 2°47.822 11.6917 3.344087 28.770297 20.421965
2005-05-13 08:36:59 51°14.061 2°47.829 11.6893 3.341876 28.747389 20.65793
2005-05-13 08:37:04 51°14.06 2°47.838 11.6884 3.391696 29.223184 20.320836
2005-05-13 08:37:09 51°14.06 2°47.845 11.6852 3.391696 29.223184 20.320836
2005-05-13 08:37:14 51°14.059 2°47.852 11.6931 3.362098 28.938912 20.65793
2005-05-13 08:37:19 51°14.058 2°47.859 11.6913 3.371156 29.025919 19.478101
2005-05-13 08:37:24 51°14.059 2°47.867 11.6924 3.383059 29.141967 19.410683
2005-05-13 08:37:29 51°14.058 2°47.874 11.6936 3.375264 29.066963 19.882614
2005-05-13 08:37:34 51°14.058 2°47.882 11.6917 3.362835 28.949633 20.927606
2005-05-13 08:37:39 51°14.058 2°47.888 11.6922 3.362835 28.949633 20.927606
2005-05-13 08:37:44 51°14.057 2°47.896 11.6929 3.345141 28.780334 20.185999
2005-05-13 08:37:48 51°14.058 2°47.901 11.6916 3.37063 29.02398 19.882614
2005-05-13 08:37:54 51°14.058 2°47.91 11.6973 3.349143 28.817864 20.253418
2005-05-13 08:37:59 51°14.057 2°47.916 11.6895 3.323023 28.569062 20.388255
2005-05-13 08:38:04 51°14.057 2°47.924 11.6942 3.356305 28.884294 19.950033
2005-05-13 08:38:09 51°14.056 2°47.931 11.6976 3.356305 28.884294 19.950033
2005-05-13 08:38:14 51°14.056 2°47.937 11.693 3.384533 29.152945 19.039879
2005-05-13 08:38:19 51°14.056 2°47.944 11.6896 3.364205 28.958999 20.253418
2005-05-13 08:38:24 51°14.056 2°47.951 11.6944 3.364626 28.962402 20.017452
2005-05-13 08:38:28 51°14.055 2°47.957 11.6981 3.348722 28.810787 20.556802
2005-05-13 08:38:34 51°14.055 2°47.965 11.6928 3.38032 29.112116 19.747777
2005-05-13 08:38:39 51°14.055 2°47.971 11.6942 3.38032 29.112116 19.747777
2005-05-13 08:38:44 51°14.055 2°47.979 11.6882 3.356516 28.884461 19.747777
2005-05-13 08:38:49 51°14.054 2°47.985 11.6879 3.377792 29.087375 19.478101
2005-05-13 08:38:54 51°14.054 2°47.992 11.6904 3.367891 28.993541 19.174717
2005-05-13 08:38:59 51°14.054 2°47.999 11.6931 3.393803 29.241436 19.612939
2005-05-13 08:39:04 51°14.054 2°48.006 11.6922 3.382427 29.13222 19.309554
2005-05-13 08:39:08 51°14.054 2°48.011 11.6889 3.382427 29.13222 19.309554
2005-05-13 08:39:14 51°14.054 2°48.018 11.6881 3.361887 28.937518 19.174717
2005-05-13 08:39:19 51°14.053 2°48.025 11.6916 3.406653 29.366674 19.242136
2005-05-13 08:39:24 51°14.052 2°48.032 11.6885 3.344193 28.770078 19.444392
2005-05-13 08:39:29 51°14.052 2°48.038 11.69 3.387061 29.178936 19.039879
2005-05-13 08:39:34 51°14.052 2°48.044 11.6902 3.379794 29.110183 19.410683
2005-05-13 08:39:39 51°14.052 2°48.05 11.6867 3.379794 29.110183 19.410683
2005-05-13 08:39:44 51°14.052 2°48.057 11.6809 3.357148 28.893555 19.714067
2005-05-13 08:39:48 51°14.052 2°48.062 11.6815 3.329658 28.632846 19.646648
2005-05-13 08:39:54 51°14.052 2°48.069 11.6864 3.222028 27.610352 19.612939
2005-05-13 08:39:59 51°14.052 2°48.075 11.687 3.366838 28.986576 19.444392
2005-05-13 08:40:04 51°14.052 2°48.081 11.6846 3.390748 29.215996 19.714067
2005-05-13 08:40:09 51°14.052 2°48.087 11.6845 3.390748 29.215996 19.714067
2005-05-13 08:40:14 51°14.051 2°48.093 11.6842 3.387377 29.184433 19.646648
2005-05-13 08:40:19 51°14.051 2°48.099 11.6833 3.384112 29.15388 19.00617
2005-05-13 08:40:24 51°14.052 2°48.105 11.6826 3.324603 28.58714 19.275845
2005-05-13 08:40:29 51°14.052 2°48.111 11.6835 3.309226 28.441385 19.983742
2005-05-13 08:40:34 51°14.051 2°48.118 11.6818 3.393803 29.247652 19.781486
2005-05-13 08:40:39 51°14.052 2°48.124 11.6856 3.393803 29.247652 19.781486
2005-05-13 08:40:44 51°14.052 2°48.13 11.69 3.40086 29.316312 19.882614
2005-05-13 08:40:49 51°14.051 2°48.136 11.6901 3.371051 29.031085 19.410683
2005-05-13 08:40:54 51°14.051 2°48.143 11.6881 3.390643 29.218716 19.039879
2005-05-13 08:40:59 51°14.051 2°48.148 11.6867 3.362098 28.945678 19.174717
2005-05-13 08:41:04 51°14.051 2°48.155 11.6898 3.332186 28.660573 19.815195
2005-05-13 08:41:08 51°14.052 2°48.16 11.6928 3.332186 28.660573 19.815195